PWSweather.com
Personal Weather Stations
Station Observations
KD5LEN
Ktxnorth1, North Richland Hills, TX 76180

Ktxnorth1North Richland Hills, TX 76180

Lat: 32.885294, Lon: -97.236048

Elevation: 694

Station Type: Vantage Pro 2

http://www.atzer0.net/VWS/root/index.htm

High Low Average
Temperature 72.7°F22.6°C 60.5°F15.8°C 67.5°F19.7°C
Dew Point 67.9°F19.9°C 35.4°F1.9°C 54.6°F12.6°C
Winds 26.0 mph 41.8 kmh 1.0 mph 1.6 kmh 9.0 mph WSW14.5 kmh WSW
Wind Gusts 26.0 mph41.8 kmh 6.0 mph9.7 kmh 16.0 mph25.7 kmh
Humidity 90% 32% 67%
Pressure 29.76 in1007.8 mb 29.65 in1004.1 mb -
Precipitation 0.00 in0.0 mm - -
Hour Temp Dew Point Humidity Winds Wind Gusts Pressure Precip Precip Rate Daily Precip Total
12:00 AM 69.3°F20.7°C 66.3°F19.1°C 90% 8.0 mph SSE12.9 kmh SSE 26.0 mph41.8 kmh 29.72 in1006.4 mb 0.00 in0.0 mm 0.00 in0.0 mm 0.00 in0.0 mm
12:02 AM 69.3°F20.7°C 66.3°F19.1°C 90% 7.0 mph SSW11.3 kmh SSW 26.0 mph41.8 kmh 29.72 in1006.4 mb 0.00 in0.0 mm 0.00 in0.0 mm 0.00 in0.0 mm
12:04 AM 69.3°F20.7°C 66.3°F19.1°C 90% 18.0 mph SSE29.0 kmh SSE 18.0 mph29.0 kmh 29.72 in1006.4 mb 0.00 in0.0 mm 0.00 in0.0 mm 0.00 in0.0 mm
12:06 AM 69.3°F20.7°C 65.9°F18.8°C 89% 17.0 mph SE27.4 kmh SE 22.0 mph35.4 kmh 29.72 in1006.4 mb 0.00 in0.0 mm 0.00 in0.0 mm 0.00 in0.0 mm
12:08 AM 69.3°F20.7°C 65.9°F18.8°C 89% 5.0 mph SE8.0 kmh SE 22.0 mph35.4 kmh 29.72 in1006.4 mb 0.00 in0.0 mm 0.00 in0.0 mm 0.00 in0.0 mm
12:10 AM 69.3°F20.7°C 65.9°F18.8°C 89% 9.0 mph SSW14.5 kmh SSW 22.0 mph35.4 kmh 29.71 in1006.1 mb 0.00 in0.0 mm 0.00 in0.0 mm 0.00 in0.0 mm
12:12 AM 69.3°F20.7°C 65.9°F18.8°C 89% 7.0 mph SE11.3 kmh SE 22.0 mph35.4 kmh 29.71 in1006.1 mb 0.00 in0.0 mm 0.00 in0.0 mm 0.00 in0.0 mm
12:14 AM 69.4°F20.8°C 66.0°F18.9°C 89% 7.0 mph S11.3 kmh S 22.0 mph35.4 kmh 29.72 in1006.4 mb 0.00 in0.0 mm 0.00 in0.0 mm 0.00 in0.0 mm
12:16 AM 69.3°F20.7°C 65.9°F18.8°C 89% 7.0 mph S11.3 kmh S 22.0 mph35.4 kmh 29.71 in1006.1 mb 0.00 in0.0 mm 0.00 in0.0 mm 0.00 in0.0 mm
12:18 AM 69.4°F20.8°C 66.0°F18.9°C 89% 8.0 mph SE12.9 kmh SE 22.0 mph35.4 kmh 29.71 in1006.1 mb 0.00 in0.0 mm 0.00 in0.0 mm 0.00 in0.0 mm
12:20 AM 69.3°F20.7°C 65.9°F18.8°C 89% 9.0 mph SW14.5 kmh SW 22.0 mph35.4 kmh 29.71 in1006.1 mb 0.00 in0.0 mm 0.00 in0.0 mm 0.00 in0.0 mm
12:22 AM 69.3°F20.7°C 65.9°F18.8°C 89% 16.0 mph S25.7 kmh S 24.0 mph38.6 kmh 29.71 in1006.1 mb 0.00 in0.0 mm 0.00 in0.0 mm 0.00 in0.0 mm
12:24 AM 69.4°F20.8°C 66.0°F18.9°C 89% 9.0 mph S14.5 kmh S 24.0 mph38.6 kmh 29.71 in1006.1 mb 0.00 in0.0 mm 0.00 in0.0 mm 0.00 in0.0 mm
12:26 AM 69.5°F20.8°C 66.1°F18.9°C 89% 13.0 mph SSE20.9 kmh SSE 24.0 mph38.6 kmh 29.71 in1006.1 mb 0.00 in0.0 mm 0.00 in0.0 mm 0.00 in0.0 mm
12:28 AM 69.5°F20.8°C 66.1°F18.9°C 89% 10.0 mph SW16.1 kmh SW 24.0 mph38.6 kmh 29.71 in1006.1 mb 0.00 in0.0 mm 0.00 in0.0 mm 0.00 in0.0 mm
12:30 AM 69.5°F20.8°C 66.1°F18.9°C 89% 12.0 mph SSE19.3 kmh SSE 24.0 mph38.6 kmh 29.71 in1006.1 mb 0.00 in0.0 mm 0.00 in0.0 mm 0.00 in0.0 mm
12:32 AM 69.5°F20.8°C 66.1°F18.9°C 89% 9.0 mph SE14.5 kmh SE 24.0 mph38.6 kmh 29.71 in1006.1 mb 0.00 in0.0 mm 0.00 in0.0 mm 0.00 in0.0 mm
12:34 AM 69.5°F20.8°C 66.1°F18.9°C 89% 6.0 mph SSW9.7 kmh SSW 18.0 mph29.0 kmh 29.71 in1006.1 mb 0.00 in0.0 mm 0.00 in0.0 mm 0.00 in0.0 mm
12:36 AM 69.6°F20.9°C 66.2°F19.0°C 89% 8.0 mph S12.9 kmh S 18.0 mph29.0 kmh 29.70 in1005.8 mb 0.00 in0.0 mm 0.00 in0.0 mm 0.00 in0.0 mm
12:38 AM 69.6°F20.9°C 66.2°F19.0°C 89% 17.0 mph S27.4 kmh S 18.0 mph29.0 kmh 29.71 in1006.1 mb 0.00 in0.0 mm 0.00 in0.0 mm 0.00 in0.0 mm
12:40 AM 69.5°F20.8°C 66.1°F18.9°C 89% 12.0 mph S19.3 kmh S 18.0 mph29.0 kmh 29.70 in1005.8 mb 0.00 in0.0 mm 0.00 in0.0 mm 0.00 in0.0 mm
12:42 AM 69.6°F20.9°C 66.2°F19.0°C 89% 13.0 mph SE20.9 kmh SE 18.0 mph29.0 kmh 29.70 in1005.8 mb 0.00 in0.0 mm 0.00 in0.0 mm 0.00 in0.0 mm
12:44 AM 69.6°F20.9°C 66.2°F19.0°C 89% 6.0 mph SSE9.7 kmh SSE 18.0 mph29.0 kmh 29.70 in1005.8 mb 0.00 in0.0 mm 0.00 in0.0 mm 0.00 in0.0 mm
12:46 AM 69.6°F20.9°C 66.2°F19.0°C 89% 12.0 mph S19.3 kmh S 19.0 mph30.6 kmh 29.70 in1005.8 mb 0.00 in0.0 mm 0.00 in0.0 mm 0.00 in0.0 mm
12:48 AM 69.6°F20.9°C 66.2°F19.0°C 89% 18.0 mph SSE29.0 kmh SSE 19.0 mph30.6 kmh 29.70 in1005.8 mb 0.00 in0.0 mm 0.00 in0.0 mm 0.00 in0.0 mm
12:50 AM 69.7°F20.9°C 66.3°F19.1°C 89% 10.0 mph SSW16.1 kmh SSW 19.0 mph30.6 kmh 29.70 in1005.8 mb 0.00 in0.0 mm 0.00 in0.0 mm 0.00 in0.0 mm
12:52 AM 69.7°F20.9°C 66.3°F19.1°C 89% 7.0 mph SSE11.3 kmh SSE 19.0 mph30.6 kmh 29.70 in1005.8 mb 0.00 in0.0 mm 0.00 in0.0 mm 0.00 in0.0 mm
12:54 AM 69.7°F20.9°C 66.3°F19.1°C 89% 9.0 mph S14.5 kmh S 19.0 mph30.6 kmh 29.70 in1005.8 mb 0.00 in0.0 mm 0.00 in0.0 mm 0.00 in0.0 mm
12:56 AM 69.8°F21.0°C 66.4°F19.1°C 89% 7.0 mph S11.3 kmh S 19.0 mph30.6 kmh 29.70 in1005.8 mb 0.00 in0.0 mm 0.00 in0.0 mm 0.00 in0.0 mm
12:58 AM 69.8°F21.0°C 66.4°F19.1°C 89% 10.0 mph SE16.1 kmh SE 19.0 mph30.6 kmh 29.69 in1005.4 mb 0.00 in0.0 mm 0.00 in0.0 mm 0.00 in0.0 mm
01:00 AM 69.8°F21.0°C 66.4°F19.1°C 89% 9.0 mph S14.5 kmh S 19.0 mph30.6 kmh 29.69 in1005.4 mb 0.00 in0.0 mm 0.00 in0.0 mm 0.00 in0.0 mm
01:02 AM 69.8°F21.0°C 66.4°F19.1°C 89% 8.0 mph S12.9 kmh S 19.0 mph30.6 kmh 29.69 in1005.4 mb 0.00 in0.0 mm 0.00 in0.0 mm 0.00 in0.0 mm
01:04 AM 69.9°F21.1°C 66.5°F19.2°C 89% 12.0 mph S19.3 kmh S 19.0 mph30.6 kmh 29.69 in1005.4 mb 0.00 in0.0 mm 0.00 in0.0 mm 0.00 in0.0 mm
01:06 AM 69.9°F21.1°C 66.5°F19.2°C 89% 13.0 mph S20.9 kmh S 19.0 mph30.6 kmh 29.69 in1005.4 mb 0.00 in0.0 mm 0.00 in0.0 mm 0.00 in0.0 mm
01:08 AM 70.0°F21.1°C 66.6°F19.2°C 89% 16.0 mph SSE25.7 kmh SSE 19.0 mph30.6 kmh 29.69 in1005.4 mb 0.00 in0.0 mm 0.00 in0.0 mm 0.00 in0.0 mm
01:10 AM 70.0°F21.1°C 66.6°F19.2°C 89% 8.0 mph S12.9 kmh S 19.0 mph30.6 kmh 29.69 in1005.4 mb 0.00 in0.0 mm 0.00 in0.0 mm 0.00 in0.0 mm
01:12 AM 70.0°F21.1°C 66.6°F19.2°C 89% 6.0 mph S9.7 kmh S 19.0 mph30.6 kmh 29.69 in1005.4 mb 0.00 in0.0 mm 0.00 in0.0 mm 0.00 in0.0 mm
01:14 AM 70.0°F21.1°C 66.6°F19.2°C 89% 6.0 mph S9.7 kmh S 19.0 mph30.6 kmh 29.69 in1005.4 mb 0.00 in0.0 mm 0.00 in0.0 mm 0.00 in0.0 mm
01:16 AM 70.1°F21.2°C 66.7°F19.3°C 89% 8.0 mph SSW12.9 kmh SSW 19.0 mph30.6 kmh 29.69 in1005.4 mb 0.00 in0.0 mm 0.00 in0.0 mm 0.00 in0.0 mm
01:18 AM 70.1°F21.2°C 66.7°F19.3°C 89% 11.0 mph SE17.7 kmh SE 19.0 mph30.6 kmh 29.69 in1005.4 mb 0.00 in0.0 mm 0.00 in0.0 mm 0.00 in0.0 mm
01:20 AM 70.2°F21.2°C 66.8°F19.3°C 89% 6.0 mph S9.7 kmh S 19.0 mph30.6 kmh 29.68 in1005.1 mb 0.00 in0.0 mm 0.00 in0.0 mm 0.00 in0.0 mm
01:22 AM 70.3°F21.3°C 66.9°F19.4°C 89% 21.0 mph S33.8 kmh S 22.0 mph35.4 kmh 29.68 in1005.1 mb 0.00 in0.0 mm 0.00 in0.0 mm 0.00 in0.0 mm
01:24 AM 70.4°F21.3°C 67.0°F19.4°C 89% 12.0 mph S19.3 kmh S 22.0 mph35.4 kmh 29.68 in1005.1 mb 0.00 in0.0 mm 0.00 in0.0 mm 0.00 in0.0 mm
01:26 AM 70.4°F21.3°C 67.0°F19.4°C 89% 13.0 mph S20.9 kmh S 22.0 mph35.4 kmh 29.68 in1005.1 mb 0.00 in0.0 mm 0.00 in0.0 mm 0.00 in0.0 mm
01:28 AM 70.5°F21.4°C 67.1°F19.5°C 89% 15.0 mph S24.1 kmh S 22.0 mph35.4 kmh 29.68 in1005.1 mb 0.00 in0.0 mm 0.00 in0.0 mm 0.00 in0.0 mm
01:30 AM 70.4°F21.3°C 67.0°F19.4°C 89% 16.0 mph SSE25.7 kmh SSE 22.0 mph35.4 kmh 29.68 in1005.1 mb 0.00 in0.0 mm 0.00 in0.0 mm 0.00 in0.0 mm
01:32 AM 70.5°F21.4°C 66.8°F19.3°C 88% 4.0 mph S6.4 kmh S 22.0 mph35.4 kmh 29.68 in1005.1 mb 0.00 in0.0 mm 0.00 in0.0 mm 0.00 in0.0 mm
01:34 AM 70.6°F21.4°C 66.9°F19.4°C 88% 11.0 mph S17.7 kmh S 17.0 mph27.4 kmh 29.68 in1005.1 mb 0.00 in0.0 mm 0.00 in0.0 mm 0.00 in0.0 mm
01:36 AM 70.7°F21.5°C 67.0°F19.4°C 88% 15.0 mph S24.1 kmh S 17.0 mph27.4 kmh 29.68 in1005.1 mb 0.00 in0.0 mm 0.00 in0.0 mm 0.00 in0.0 mm
01:38 AM 70.8°F21.6°C 67.1°F19.5°C 88% 7.0 mph S11.3 kmh S 17.0 mph27.4 kmh 29.68 in1005.1 mb 0.00 in0.0 mm 0.00 in0.0 mm 0.00 in0.0 mm
01:40 AM 70.9°F21.6°C 67.2°F19.6°C 88% 11.0 mph S17.7 kmh S 17.0 mph27.4 kmh 29.68 in1005.1 mb 0.00 in0.0 mm 0.00 in0.0 mm 0.00 in0.0 mm
01:42 AM 71.0°F21.7°C 67.3°F19.6°C 88% 9.0 mph S14.5 kmh S 17.0 mph27.4 kmh 29.68 in1005.1 mb 0.00 in0.0 mm 0.00 in0.0 mm 0.00 in0.0 mm
01:44 AM 71.0°F21.7°C 67.3°F19.6°C 88% 14.0 mph S22.5 kmh S 17.0 mph27.4 kmh 29.68 in1005.1 mb 0.00 in0.0 mm 0.00 in0.0 mm 0.00 in0.0 mm
01:46 AM 71.1°F21.7°C 67.4°F19.7°C 88% 9.0 mph SSW14.5 kmh SSW 17.0 mph27.4 kmh 29.67 in1004.7 mb 0.00 in0.0 mm 0.00 in0.0 mm 0.00 in0.0 mm
01:48 AM 71.1°F21.7°C 67.4°F19.7°C 88% 10.0 mph S16.1 kmh S 19.0 mph30.6 kmh 29.67 in1004.7 mb 0.00 in0.0 mm 0.00 in0.0 mm 0.00 in0.0 mm
01:50 AM 71.3°F21.8°C 67.6°F19.8°C 88% 8.0 mph S12.9 kmh S 19.0 mph30.6 kmh 29.67 in1004.7 mb 0.00 in0.0 mm 0.00 in0.0 mm 0.00 in0.0 mm
01:52 AM 71.3°F21.8°C 67.2°F19.6°C 87% 10.0 mph SSW16.1 kmh SSW 19.0 mph30.6 kmh 29.67 in1004.7 mb 0.00 in0.0 mm 0.00 in0.0 mm 0.00 in0.0 mm
01:54 AM 71.4°F21.9°C 67.3°F19.6°C 87% 11.0 mph SE17.7 kmh SE 19.0 mph30.6 kmh 29.67 in1004.7 mb 0.00 in0.0 mm 0.00 in0.0 mm 0.00 in0.0 mm
01:56 AM 71.5°F21.9°C 67.4°F19.7°C 87% 5.0 mph SSE8.0 kmh SSE 22.0 mph35.4 kmh 29.67 in1004.7 mb 0.00 in0.0 mm 0.00 in0.0 mm 0.00 in0.0 mm
01:58 AM 71.6°F22.0°C 67.5°F19.7°C 87% 9.0 mph S14.5 kmh S 22.0 mph35.4 kmh 29.67 in1004.7 mb 0.00 in0.0 mm 0.00 in0.0 mm 0.00 in0.0 mm
02:00 AM 71.7°F22.1°C 67.6°F19.8°C 87% 11.0 mph SSE17.7 kmh SSE 22.0 mph35.4 kmh 29.67 in1004.7 mb 0.00 in0.0 mm 0.00 in0.0 mm 0.00 in0.0 mm
02:02 AM 71.8°F22.1°C 67.7°F19.8°C 87% 15.0 mph SSW24.1 kmh SSW 22.0 mph35.4 kmh 29.67 in1004.7 mb 0.00 in0.0 mm 0.00 in0.0 mm 0.00 in0.0 mm
02:04 AM 71.8°F22.1°C 67.4°F19.7°C 86% 12.0 mph S19.3 kmh S 20.0 mph32.2 kmh 29.67 in1004.7 mb 0.00 in0.0 mm 0.00 in0.0 mm 0.00 in0.0 mm
02:06 AM 71.9°F22.2°C 67.5°F19.7°C 86% 7.0 mph S11.3 kmh S 20.0 mph32.2 kmh 29.67 in1004.7 mb 0.00 in0.0 mm 0.00 in0.0 mm 0.00 in0.0 mm
02:08 AM 72.0°F22.2°C 67.6°F19.8°C 86% 7.0 mph SSW11.3 kmh SSW 20.0 mph32.2 kmh 29.67 in1004.7 mb 0.00 in0.0 mm 0.00 in0.0 mm 0.00 in0.0 mm
02:10 AM 72.0°F22.2°C 67.6°F19.8°C 86% 9.0 mph SSE14.5 kmh SSE 20.0 mph32.2 kmh 29.67 in1004.7 mb 0.00 in0.0 mm 0.00 in0.0 mm 0.00 in0.0 mm
02:12 AM 72.0°F22.2°C 67.6°F19.8°C 86% 10.0 mph S16.1 kmh S 20.0 mph32.2 kmh 29.67 in1004.7 mb 0.00 in0.0 mm 0.00 in0.0 mm 0.00 in0.0 mm
02:14 AM 72.1°F22.3°C 67.7°F19.8°C 86% 13.0 mph S20.9 kmh S 23.0 mph37.0 kmh 29.67 in1004.7 mb 0.00 in0.0 mm 0.00 in0.0 mm 0.00 in0.0 mm
02:16 AM 72.2°F22.3°C 67.8°F19.9°C 86% 5.0 mph SSW8.0 kmh SSW 23.0 mph37.0 kmh 29.66 in1004.4 mb 0.00 in0.0 mm 0.00 in0.0 mm 0.00 in0.0 mm
02:18 AM 72.3°F22.4°C 67.9°F19.9°C 86% 11.0 mph S17.7 kmh S 23.0 mph37.0 kmh 29.67 in1004.7 mb 0.00 in0.0 mm 0.00 in0.0 mm 0.00 in0.0 mm
02:20 AM 72.3°F22.4°C 67.9°F19.9°C 86% 13.0 mph S20.9 kmh S 23.0 mph37.0 kmh 29.67 in1004.7 mb 0.00 in0.0 mm 0.00 in0.0 mm 0.00 in0.0 mm
02:22 AM 72.4°F22.4°C 67.6°F19.8°C 85% 7.0 mph S11.3 kmh S 23.0 mph37.0 kmh 29.66 in1004.4 mb 0.00 in0.0 mm 0.00 in0.0 mm 0.00 in0.0 mm
02:24 AM 72.4°F22.4°C 67.6°F19.8°C 85% 5.0 mph SSW8.0 kmh SSW 23.0 mph37.0 kmh 29.67 in1004.7 mb 0.00 in0.0 mm 0.00 in0.0 mm 0.00 in0.0 mm
02:26 AM 72.5°F22.5°C 67.7°F19.8°C 85% 15.0 mph S24.1 kmh S 23.0 mph37.0 kmh 29.67 in1004.7 mb 0.00 in0.0 mm 0.00 in0.0 mm 0.00 in0.0 mm
02:28 AM 72.5°F22.5°C 67.7°F19.8°C 85% 8.0 mph SSW12.9 kmh SSW 23.0 mph37.0 kmh 29.66 in1004.4 mb 0.00 in0.0 mm 0.00 in0.0 mm 0.00 in0.0 mm
02:30 AM 72.5°F22.5°C 67.7°F19.8°C 85% 14.0 mph SE22.5 kmh SE 23.0 mph37.0 kmh 29.67 in1004.7 mb 0.00 in0.0 mm 0.00 in0.0 mm 0.00 in0.0 mm
02:32 AM 72.5°F22.5°C 67.7°F19.8°C 85% 9.0 mph SW14.5 kmh SW 23.0 mph37.0 kmh 29.66 in1004.4 mb 0.00 in0.0 mm 0.00 in0.0 mm 0.00 in0.0 mm
02:34 AM 72.5°F22.5°C 67.7°F19.8°C 85% 6.0 mph SSE9.7 kmh SSE 18.0 mph29.0 kmh 29.66 in1004.4 mb 0.00 in0.0 mm 0.00 in0.0 mm 0.00 in0.0 mm
02:36 AM 72.5°F22.5°C 67.7°F19.8°C 85% 9.0 mph SSE14.5 kmh SSE 18.0 mph29.0 kmh 29.66 in1004.4 mb 0.00 in0.0 mm 0.00 in0.0 mm 0.00 in0.0 mm
02:38 AM 72.5°F22.5°C 67.7°F19.8°C 85% 14.0 mph S22.5 kmh S 18.0 mph29.0 kmh 29.67 in1004.7 mb 0.00 in0.0 mm 0.00 in0.0 mm 0.00 in0.0 mm
02:40 AM 72.5°F22.5°C 67.7°F19.8°C 85% 9.0 mph S14.5 kmh S 21.0 mph33.8 kmh 29.67 in1004.7 mb 0.00 in0.0 mm 0.00 in0.0 mm 0.00 in0.0 mm
02:42 AM 72.5°F22.5°C 67.7°F19.8°C 85% 14.0 mph S22.5 kmh S 21.0 mph33.8 kmh 29.67 in1004.7 mb 0.00 in0.0 mm 0.00 in0.0 mm 0.00 in0.0 mm
02:44 AM 72.5°F22.5°C 67.7°F19.8°C 85% 9.0 mph SSW14.5 kmh SSW 21.0 mph33.8 kmh 29.66 in1004.4 mb 0.00 in0.0 mm 0.00 in0.0 mm 0.00 in0.0 mm
02:46 AM 72.5°F22.5°C 67.7°F19.8°C 85% 8.0 mph SSW12.9 kmh SSW 21.0 mph33.8 kmh 29.66 in1004.4 mb 0.00 in0.0 mm 0.00 in0.0 mm 0.00 in0.0 mm
02:48 AM 72.6°F22.6°C 67.8°F19.9°C 85% 11.0 mph SSW17.7 kmh SSW 21.0 mph33.8 kmh 29.66 in1004.4 mb 0.00 in0.0 mm 0.00 in0.0 mm 0.00 in0.0 mm
02:50 AM 72.5°F22.5°C 67.4°F19.7°C 84% 11.0 mph S17.7 kmh S 21.0 mph33.8 kmh 29.66 in1004.4 mb 0.00 in0.0 mm 0.00 in0.0 mm 0.00 in0.0 mm
02:52 AM 72.5°F22.5°C 67.7°F19.8°C 85% 11.0 mph S17.7 kmh S 21.0 mph33.8 kmh 29.66 in1004.4 mb 0.00 in0.0 mm 0.00 in0.0 mm 0.00 in0.0 mm
02:54 AM 72.5°F22.5°C 67.7°F19.8°C 85% 12.0 mph S19.3 kmh S 24.0 mph38.6 kmh 29.66 in1004.4 mb 0.00 in0.0 mm 0.00 in0.0 mm 0.00 in0.0 mm
02:56 AM 72.5°F22.5°C 67.7°F19.8°C 85% 7.0 mph S11.3 kmh S 24.0 mph38.6 kmh 29.66 in1004.4 mb 0.00 in0.0 mm 0.00 in0.0 mm 0.00 in0.0 mm
02:58 AM 72.6°F22.6°C 67.8°F19.9°C 85% 16.0 mph SSW25.7 kmh SSW 24.0 mph38.6 kmh 29.66 in1004.4 mb 0.01 in0.3 mm 0.30 in7.6 mm 0.01 in0.3 mm
03:00 AM 72.7°F22.6°C 67.6°F19.8°C 84% 22.0 mph S35.4 kmh S 24.0 mph38.6 kmh 29.65 in1004.1 mb 0.01 in0.3 mm 0.00 in0.0 mm 0.01 in0.3 mm
03:02 AM 72.7°F22.6°C 67.6°F19.8°C 84% 15.0 mph SSW24.1 kmh SSW 24.0 mph38.6 kmh 29.65 in1004.1 mb 0.01 in0.3 mm 0.00 in0.0 mm 0.01 in0.3 mm
03:04 AM 72.7°F22.6°C 67.6°F19.8°C 84% 15.0 mph S24.1 kmh S 15.0 mph24.1 kmh 29.65 in1004.1 mb 0.01 in0.3 mm 0.00 in0.0 mm 0.01 in0.3 mm
03:06 AM 72.7°F22.6°C 67.6°F19.8°C 84% 9.0 mph SSW14.5 kmh SSW 21.0 mph33.8 kmh 29.66 in1004.4 mb 0.01 in0.3 mm 0.00 in0.0 mm 0.01 in0.3 mm
03:08 AM 72.7°F22.6°C 67.6°F19.8°C 84% 7.0 mph S11.3 kmh S 21.0 mph33.8 kmh 29.66 in1004.4 mb 0.01 in0.3 mm 0.00 in0.0 mm 0.01 in0.3 mm
03:10 AM 72.7°F22.6°C 67.6°F19.8°C 84% 14.0 mph SW22.5 kmh SW 21.0 mph33.8 kmh 29.66 in1004.4 mb 0.01 in0.3 mm 0.00 in0.0 mm 0.01 in0.3 mm
03:12 AM 72.7°F22.6°C 67.6°F19.8°C 84% 7.0 mph SW11.3 kmh SW 21.0 mph33.8 kmh 29.67 in1004.7 mb 0.01 in0.3 mm 0.00 in0.0 mm 0.01 in0.3 mm
03:14 AM 72.7°F22.6°C 67.6°F19.8°C 84% 6.0 mph WSW9.7 kmh WSW 21.0 mph33.8 kmh 29.67 in1004.7 mb 0.01 in0.3 mm 0.00 in0.0 mm 0.01 in0.3 mm
03:16 AM 72.7°F22.6°C 67.6°F19.8°C 84% 9.0 mph WSW14.5 kmh WSW 21.0 mph33.8 kmh 29.68 in1005.1 mb 0.01 in0.3 mm 0.00 in0.0 mm 0.01 in0.3 mm
03:18 AM 72.7°F22.6°C 67.6°F19.8°C 84% 15.0 mph SW24.1 kmh SW 21.0 mph33.8 kmh 29.68 in1005.1 mb 0.01 in0.3 mm 0.00 in0.0 mm 0.01 in0.3 mm
03:20 AM 72.7°F22.6°C 67.6°F19.8°C 84% 9.0 mph SW14.5 kmh SW 21.0 mph33.8 kmh 29.68 in1005.1 mb 0.01 in0.3 mm 0.00 in0.0 mm 0.01 in0.3 mm
03:22 AM 72.7°F22.6°C 67.6°F19.8°C 84% 7.0 mph SW11.3 kmh SW 21.0 mph33.8 kmh 29.68 in1005.1 mb 0.01 in0.3 mm 0.00 in0.0 mm 0.01 in0.3 mm
03:24 AM 72.7°F22.6°C 67.6°F19.8°C 84% 9.0 mph SW14.5 kmh SW 21.0 mph33.8 kmh 29.68 in1005.1 mb 0.01 in0.3 mm 0.00 in0.0 mm 0.01 in0.3 mm
03:26 AM 72.6°F22.6°C 67.5°F19.7°C 84% 5.0 mph SW8.0 kmh SW 21.0 mph33.8 kmh 29.68 in1005.1 mb 0.01 in0.3 mm 0.00 in0.0 mm 0.01 in0.3 mm
03:28 AM 72.6°F22.6°C 67.5°F19.7°C 84% 6.0 mph WSW9.7 kmh WSW 21.0 mph33.8 kmh 29.68 in1005.1 mb 0.01 in0.3 mm 0.00 in0.0 mm 0.01 in0.3 mm
03:30 AM 72.5°F22.5°C 67.4°F19.7°C 84% 7.0 mph WSW11.3 kmh WSW 21.0 mph33.8 kmh 29.68 in1005.1 mb 0.01 in0.3 mm 0.00 in0.0 mm 0.01 in0.3 mm
03:32 AM 72.5°F22.5°C 67.7°F19.8°C 85% 4.0 mph WSW6.4 kmh WSW 21.0 mph33.8 kmh 29.68 in1005.1 mb 0.01 in0.3 mm 0.00 in0.0 mm 0.01 in0.3 mm
03:34 AM 72.4°F22.4°C 67.6°F19.8°C 85% 10.0 mph SW16.1 kmh SW 10.0 mph16.1 kmh 29.68 in1005.1 mb 0.01 in0.3 mm 0.00 in0.0 mm 0.01 in0.3 mm
03:36 AM 72.4°F22.4°C 67.6°F19.8°C 85% 8.0 mph SW12.9 kmh SW 10.0 mph16.1 kmh 29.68 in1005.1 mb 0.01 in0.3 mm 0.00 in0.0 mm 0.01 in0.3 mm
03:38 AM 72.5°F22.5°C 67.7°F19.8°C 85% 6.0 mph WSW9.7 kmh WSW 10.0 mph16.1 kmh 29.68 in1005.1 mb 0.01 in0.3 mm 0.00 in0.0 mm 0.01 in0.3 mm
03:40 AM 72.4°F22.4°C 67.6°F19.8°C 85% 6.0 mph W9.7 kmh W 11.0 mph17.7 kmh 29.69 in1005.4 mb 0.01 in0.3 mm 0.00 in0.0 mm 0.01 in0.3 mm
03:42 AM 72.5°F22.5°C 67.7°F19.8°C 85% 7.0 mph SW11.3 kmh SW 11.0 mph17.7 kmh 29.69 in1005.4 mb 0.01 in0.3 mm 0.00 in0.0 mm 0.01 in0.3 mm
03:44 AM 72.4°F22.4°C 67.6°F19.8°C 85% 9.0 mph S14.5 kmh S 11.0 mph17.7 kmh 29.69 in1005.4 mb 0.01 in0.3 mm 0.00 in0.0 mm 0.01 in0.3 mm
03:46 AM 72.4°F22.4°C 67.6°F19.8°C 85% 9.0 mph SW14.5 kmh SW 11.0 mph17.7 kmh 29.68 in1005.1 mb 0.01 in0.3 mm 0.00 in0.0 mm 0.01 in0.3 mm
03:48 AM 72.4°F22.4°C 67.6°F19.8°C 85% 6.0 mph SSW9.7 kmh SSW 13.0 mph20.9 kmh 29.68 in1005.1 mb 0.01 in0.3 mm 0.00 in0.0 mm 0.01 in0.3 mm
03:50 AM 72.4°F22.4°C 67.6°F19.8°C 85% 14.0 mph WSW22.5 kmh WSW 14.0 mph22.5 kmh 29.68 in1005.1 mb 0.01 in0.3 mm 0.00 in0.0 mm 0.01 in0.3 mm
03:52 AM 72.4°F22.4°C 67.6°F19.8°C 85% 7.0 mph WSW11.3 kmh WSW 14.0 mph22.5 kmh 29.69 in1005.4 mb 0.01 in0.3 mm 0.00 in0.0 mm 0.01 in0.3 mm
03:54 AM 72.3°F22.4°C 67.5°F19.7°C 85% 4.0 mph WSW6.4 kmh WSW 14.0 mph22.5 kmh 29.68 in1005.1 mb 0.01 in0.3 mm 0.00 in0.0 mm 0.01 in0.3 mm
03:56 AM 72.3°F22.4°C 67.5°F19.7°C 85% 8.0 mph SW12.9 kmh SW 14.0 mph22.5 kmh 29.68 in1005.1 mb 0.01 in0.3 mm 0.00 in0.0 mm 0.01 in0.3 mm
03:58 AM 72.3°F22.4°C 67.5°F19.7°C 85% 7.0 mph SW11.3 kmh SW 14.0 mph22.5 kmh 29.69 in1005.4 mb 0.01 in0.3 mm 0.00 in0.0 mm 0.01 in0.3 mm
04:00 AM 72.2°F22.3°C 67.5°F19.7°C 85% 3.0 mph WSW4.8 kmh WSW 14.0 mph22.5 kmh 29.68 in1005.1 mb 0.01 in0.3 mm 0.00 in0.0 mm 0.01 in0.3 mm
04:02 AM 72.2°F22.3°C 67.5°F19.7°C 85% 8.0 mph SSW12.9 kmh SSW 14.0 mph22.5 kmh 29.68 in1005.1 mb 0.01 in0.3 mm 0.00 in0.0 mm 0.01 in0.3 mm
04:04 AM 72.2°F22.3°C 67.5°F19.7°C 85% 10.0 mph SW16.1 kmh SW 12.0 mph19.3 kmh 29.68 in1005.1 mb 0.00 in0.0 mm 0.00 in0.0 mm 0.01 in0.3 mm
04:06 AM 72.1°F22.3°C 67.7°F19.8°C 86% 10.0 mph SW16.1 kmh SW 12.0 mph19.3 kmh 29.68 in1005.1 mb 0.00 in0.0 mm 0.00 in0.0 mm 0.01 in0.3 mm
04:08 AM 72.1°F22.3°C 67.7°F19.8°C 86% 5.0 mph SW8.0 kmh SW 12.0 mph19.3 kmh 29.68 in1005.1 mb 0.00 in0.0 mm 0.00 in0.0 mm 0.01 in0.3 mm
04:10 AM 72.1°F22.3°C 67.7°F19.8°C 86% 9.0 mph SW14.5 kmh SW 12.0 mph19.3 kmh 29.68 in1005.1 mb 0.00 in0.0 mm 0.00 in0.0 mm 0.01 in0.3 mm
04:12 AM 72.1°F22.3°C 67.7°F19.8°C 86% 5.0 mph SW8.0 kmh SW 16.0 mph25.7 kmh 29.68 in1005.1 mb 0.00 in0.0 mm 0.00 in0.0 mm 0.01 in0.3 mm
04:14 AM 72.0°F22.2°C 67.6°F19.8°C 86% 4.0 mph SW6.4 kmh SW 16.0 mph25.7 kmh 29.67 in1004.7 mb 0.00 in0.0 mm 0.00 in0.0 mm 0.01 in0.3 mm
04:16 AM 72.0°F22.2°C 67.6°F19.8°C 86% 5.0 mph SW8.0 kmh SW 16.0 mph25.7 kmh 29.68 in1005.1 mb 0.00 in0.0 mm 0.00 in0.0 mm 0.01 in0.3 mm
04:18 AM 71.9°F22.2°C 67.5°F19.7°C 86% 4.0 mph SW6.4 kmh SW 16.0 mph25.7 kmh 29.67 in1004.7 mb 0.00 in0.0 mm 0.00 in0.0 mm 0.01 in0.3 mm
04:20 AM 71.9°F22.2°C 67.5°F19.7°C 86% 6.0 mph WSW9.7 kmh WSW 16.0 mph25.7 kmh 29.67 in1004.7 mb 0.00 in0.0 mm 0.00 in0.0 mm 0.01 in0.3 mm
04:22 AM 71.8°F22.1°C 67.4°F19.7°C 86% 5.0 mph SW8.0 kmh SW 16.0 mph25.7 kmh 29.67 in1004.7 mb 0.03 in0.8 mm 0.90 in22.9 mm 0.04 in1.0 mm
04:24 AM 71.7°F22.1°C 67.3°F19.6°C 86% 4.0 mph SW6.4 kmh SW 16.0 mph25.7 kmh 29.67 in1004.7 mb 0.04 in1.0 mm 0.30 in7.6 mm 0.05 in1.3 mm
04:26 AM 71.5°F21.9°C 67.4°F19.7°C 87% 7.0 mph WSW11.3 kmh WSW 16.0 mph25.7 kmh 29.67 in1004.7 mb 0.04 in1.0 mm 0.00 in0.0 mm 0.05 in1.3 mm
04:28 AM 71.4°F21.9°C 67.3°F19.6°C 87% 6.0 mph SSW9.7 kmh SSW 16.0 mph25.7 kmh 29.67 in1004.7 mb 0.04 in1.0 mm 0.00 in0.0 mm 0.05 in1.3 mm
04:30 AM 71.3°F21.8°C 67.2°F19.6°C 87% 6.0 mph SW9.7 kmh SW 16.0 mph25.7 kmh 29.68 in1005.1 mb 0.04 in1.0 mm 0.00 in0.0 mm 0.05 in1.3 mm
04:32 AM 71.2°F21.8°C 67.1°F19.5°C 87% 6.0 mph SSW9.7 kmh SSW 16.0 mph25.7 kmh 29.67 in1004.7 mb 0.04 in1.0 mm 0.00 in0.0 mm 0.05 in1.3 mm
04:34 AM 71.1°F21.7°C 67.4°F19.7°C 88% 6.0 mph S9.7 kmh S 6.0 mph9.7 kmh 29.67 in1004.7 mb 0.04 in1.0 mm 0.00 in0.0 mm 0.05 in1.3 mm
04:36 AM 71.1°F21.7°C 67.4°F19.7°C 88% 6.0 mph S9.7 kmh S 8.0 mph12.9 kmh 29.67 in1004.7 mb 0.04 in1.0 mm 0.00 in0.0 mm 0.05 in1.3 mm
04:38 AM 71.1°F21.7°C 67.4°F19.7°C 88% 9.0 mph SSW14.5 kmh SSW 9.0 mph14.5 kmh 29.67 in1004.7 mb 0.04 in1.0 mm 0.00 in0.0 mm 0.05 in1.3 mm
04:40 AM 71.0°F21.7°C 67.3°F19.6°C 88% 8.0 mph SSW12.9 kmh SSW 9.0 mph14.5 kmh 29.67 in1004.7 mb 0.04 in1.0 mm 0.00 in0.0 mm 0.05 in1.3 mm
04:42 AM 71.0°F21.7°C 67.3°F19.6°C 88% 8.0 mph SSW12.9 kmh SSW 9.0 mph14.5 kmh 29.67 in1004.7 mb 0.05 in1.3 mm 0.30 in7.6 mm 0.06 in1.5 mm
04:44 AM 71.0°F21.7°C 67.3°F19.6°C 88% 7.0 mph SSW11.3 kmh SSW 9.0 mph14.5 kmh 29.67 in1004.7 mb 0.05 in1.3 mm 0.00 in0.0 mm 0.06 in1.5 mm
04:46 AM 71.0°F21.7°C 67.3°F19.6°C 88% 8.0 mph S12.9 kmh S 9.0 mph14.5 kmh 29.67 in1004.7 mb 0.05 in1.3 mm 0.00 in0.0 mm 0.06 in1.5 mm
04:48 AM 71.0°F21.7°C 67.3°F19.6°C 88% 7.0 mph SW11.3 kmh SW 9.0 mph14.5 kmh 29.67 in1004.7 mb 0.05 in1.3 mm 0.00 in0.0 mm 0.06 in1.5 mm
04:50 AM 70.9°F21.6°C 67.2°F19.6°C 88% 5.0 mph SSW8.0 kmh SSW 9.0 mph14.5 kmh 29.67 in1004.7 mb 0.05 in1.3 mm 0.00 in0.0 mm 0.06 in1.5 mm
04:52 AM 70.9°F21.6°C 67.2°F19.6°C 88% 5.0 mph SSW8.0 kmh SSW 10.0 mph16.1 kmh 29.67 in1004.7 mb 0.05 in1.3 mm 0.00 in0.0 mm 0.06 in1.5 mm
04:54 AM 70.9°F21.6°C 67.2°F19.6°C 88% 5.0 mph S8.0 kmh S 10.0 mph16.1 kmh 29.67 in1004.7 mb 0.05 in1.3 mm 0.00 in0.0 mm 0.06 in1.5 mm
04:56 AM 70.9°F21.6°C 67.2°F19.6°C 88% 4.0 mph SSW6.4 kmh SSW 10.0 mph16.1 kmh 29.66 in1004.4 mb 0.05 in1.3 mm 0.00 in0.0 mm 0.06 in1.5 mm
04:58 AM 70.9°F21.6°C 67.2°F19.6°C 88% 11.0 mph S17.7 kmh S 11.0 mph17.7 kmh 29.67 in1004.7 mb 0.05 in1.3 mm 0.00 in0.0 mm 0.06 in1.5 mm
05:00 AM 70.8°F21.6°C 67.1°F19.5°C 88% 5.0 mph SSW8.0 kmh SSW 11.0 mph17.7 kmh 29.66 in1004.4 mb 0.05 in1.3 mm 0.00 in0.0 mm 0.06 in1.5 mm
05:02 AM 70.9°F21.6°C 67.2°F19.6°C 88% 3.0 mph S4.8 kmh S 11.0 mph17.7 kmh 29.66 in1004.4 mb 0.06 in1.5 mm 0.30 in7.6 mm 0.07 in1.8 mm
05:04 AM 70.8°F21.6°C 67.1°F19.5°C 88% 6.0 mph SSW9.7 kmh SSW 8.0 mph12.9 kmh 29.66 in1004.4 mb 0.06 in1.5 mm 0.00 in0.0 mm 0.07 in1.8 mm
05:06 AM 70.8°F21.6°C 67.1°F19.5°C 88% 6.0 mph S9.7 kmh S 9.0 mph14.5 kmh 29.66 in1004.4 mb 0.06 in1.5 mm 0.00 in0.0 mm 0.07 in1.8 mm
05:08 AM 70.8°F21.6°C 67.4°F19.7°C 89% 4.0 mph S6.4 kmh S 9.0 mph14.5 kmh 29.66 in1004.4 mb 0.06 in1.5 mm 0.00 in0.0 mm 0.07 in1.8 mm
05:10 AM 70.8°F21.6°C 67.4°F19.7°C 89% 6.0 mph S9.7 kmh S 9.0 mph14.5 kmh 29.66 in1004.4 mb 0.06 in1.5 mm 0.00 in0.0 mm 0.07 in1.8 mm
05:12 AM 70.7°F21.5°C 67.3°F19.6°C 89% 5.0 mph SSW8.0 kmh SSW 9.0 mph14.5 kmh 29.66 in1004.4 mb 0.06 in1.5 mm 0.00 in0.0 mm 0.07 in1.8 mm
05:14 AM 70.7°F21.5°C 67.3°F19.6°C 89% 4.0 mph SSW6.4 kmh SSW 9.0 mph14.5 kmh 29.67 in1004.7 mb 0.06 in1.5 mm 0.00 in0.0 mm 0.07 in1.8 mm
05:16 AM 70.7°F21.5°C 67.3°F19.6°C 89% 3.0 mph SW4.8 kmh SW 9.0 mph14.5 kmh 29.67 in1004.7 mb 0.06 in1.5 mm 0.00 in0.0 mm 0.07 in1.8 mm
05:18 AM 70.6°F21.4°C 67.2°F19.6°C 89% 6.0 mph SW9.7 kmh SW 9.0 mph14.5 kmh 29.67 in1004.7 mb 0.06 in1.5 mm 0.00 in0.0 mm 0.07 in1.8 mm
05:20 AM 70.7°F21.5°C 67.3°F19.6°C 89% 6.0 mph SW9.7 kmh SW 9.0 mph14.5 kmh 29.67 in1004.7 mb 0.06 in1.5 mm 0.00 in0.0 mm 0.07 in1.8 mm
05:22 AM 70.6°F21.4°C 67.2°F19.6°C 89% 5.0 mph SSW8.0 kmh SSW 9.0 mph14.5 kmh 29.66 in1004.4 mb 0.06 in1.5 mm 0.00 in0.0 mm 0.07 in1.8 mm
05:24 AM 70.6°F21.4°C 67.2°F19.6°C 89% 7.0 mph SSW11.3 kmh SSW 9.0 mph14.5 kmh 29.67 in1004.7 mb 0.06 in1.5 mm 0.00 in0.0 mm 0.07 in1.8 mm
05:26 AM 70.5°F21.4°C 67.1°F19.5°C 89% 3.0 mph SW4.8 kmh SW 9.0 mph14.5 kmh 29.66 in1004.4 mb 0.06 in1.5 mm 0.00 in0.0 mm 0.07 in1.8 mm
05:28 AM 70.5°F21.4°C 67.1°F19.5°C 89% 2.0 mph SSW3.2 kmh SSW 9.0 mph14.5 kmh 29.66 in1004.4 mb 0.06 in1.5 mm 0.00 in0.0 mm 0.07 in1.8 mm
05:30 AM 70.4°F21.3°C 67.0°F19.4°C 89% 3.0 mph SSW4.8 kmh SSW 9.0 mph14.5 kmh 29.66 in1004.4 mb 0.06 in1.5 mm 0.00 in0.0 mm 0.07 in1.8 mm
05:32 AM 70.4°F21.3°C 67.0°F19.4°C 89% 4.0 mph S6.4 kmh S 9.0 mph14.5 kmh 29.66 in1004.4 mb 0.06 in1.5 mm 0.00 in0.0 mm 0.07 in1.8 mm
05:34 AM 70.4°F21.3°C 67.0°F19.4°C 89% 3.0 mph SSW4.8 kmh SSW 6.0 mph9.7 kmh 29.66 in1004.4 mb 0.02 in0.5 mm 0.00 in0.0 mm 0.07 in1.8 mm
05:36 AM 70.4°F21.3°C 67.0°F19.4°C 89% 5.0 mph SW8.0 kmh SW 6.0 mph9.7 kmh 29.66 in1004.4 mb 0.02 in0.5 mm 0.00 in0.0 mm 0.07 in1.8 mm
05:38 AM 70.3°F21.3°C 66.9°F19.4°C 89% 2.0 mph SW3.2 kmh SW 8.0 mph12.9 kmh 29.66 in1004.4 mb 0.02 in0.5 mm 0.00 in0.0 mm 0.07 in1.8 mm
05:40 AM 70.3°F21.3°C 66.9°F19.4°C 89% 3.0 mph SW4.8 kmh SW 8.0 mph12.9 kmh 29.66 in1004.4 mb 0.02 in0.5 mm 0.00 in0.0 mm 0.07 in1.8 mm
05:42 AM 70.3°F21.3°C 66.9°F19.4°C 89% 4.0 mph SW6.4 kmh SW 8.0 mph12.9 kmh 29.66 in1004.4 mb 0.02 in0.5 mm 0.00 in0.0 mm 0.07 in1.8 mm
05:44 AM 70.3°F21.3°C 66.9°F19.4°C 89% 1.0 mph SSW1.6 kmh SSW 8.0 mph12.9 kmh 29.66 in1004.4 mb 0.02 in0.5 mm 0.00 in0.0 mm 0.07 in1.8 mm
05:46 AM 70.3°F21.3°C 66.9°F19.4°C 89% 6.0 mph SSW9.7 kmh SSW 8.0 mph12.9 kmh 29.66 in1004.4 mb 0.02 in0.5 mm 0.00 in0.0 mm 0.07 in1.8 mm
05:48 AM 70.3°F21.3°C 66.9°F19.4°C 89% 4.0 mph SSW6.4 kmh SSW 8.0 mph12.9 kmh 29.65 in1004.1 mb 0.02 in0.5 mm 0.00 in0.0 mm 0.07 in1.8 mm
05:50 AM 70.3°F21.3°C 67.2°F19.6°C 90% 3.0 mph S4.8 kmh S 8.0 mph12.9 kmh 29.65 in1004.1 mb 0.02 in0.5 mm 0.00 in0.0 mm 0.07 in1.8 mm
05:52 AM 70.3°F21.3°C 66.9°F19.4°C 89% 2.0 mph S3.2 kmh S 8.0 mph12.9 kmh 29.65 in1004.1 mb 0.02 in0.5 mm 0.00 in0.0 mm 0.07 in1.8 mm
05:54 AM 70.2°F21.2°C 66.8°F19.3°C 89% 4.0 mph WSW6.4 kmh WSW 8.0 mph12.9 kmh 29.66 in1004.4 mb 0.02 in0.5 mm 0.00 in0.0 mm 0.07 in1.8 mm
05:56 AM 70.2°F21.2°C 66.8°F19.3°C 89% 5.0 mph WNW8.0 kmh WNW 8.0 mph12.9 kmh 29.66 in1004.4 mb 0.02 in0.5 mm 0.00 in0.0 mm 0.07 in1.8 mm
05:58 AM 70.2°F21.2°C 66.8°F19.3°C 89% 8.0 mph W12.9 kmh W 8.0 mph12.9 kmh 29.66 in1004.4 mb 0.04 in1.0 mm 0.60 in15.2 mm 0.09 in2.3 mm
06:00 AM 70.1°F21.2°C 67.0°F19.4°C 90% 4.0 mph WSW6.4 kmh WSW 11.0 mph17.7 kmh 29.67 in1004.7 mb 0.06 in1.5 mm 0.02 in0.5 mm 0.11 in2.8 mm
06:02 AM 70.2°F21.2°C 67.1°F19.5°C 90% 6.0 mph WSW9.7 kmh WSW 11.0 mph17.7 kmh 29.67 in1004.7 mb 0.06 in1.5 mm 0.00 in0.0 mm 0.11 in2.8 mm
06:04 AM 70.2°F21.2°C 67.1°F19.5°C 90% 6.0 mph W9.7 kmh W 10.0 mph16.1 kmh 29.67 in1004.7 mb 0.04 in1.0 mm 0.00 in0.0 mm 0.11 in2.8 mm
06:06 AM 70.1°F21.2°C 67.0°F19.4°C 90% 8.0 mph W12.9 kmh W 12.0 mph19.3 kmh 29.67 in1004.7 mb 0.04 in1.0 mm 0.00 in0.0 mm 0.11 in2.8 mm
06:08 AM 70.0°F21.1°C 66.9°F19.4°C 90% 6.0 mph W9.7 kmh W 12.0 mph19.3 kmh 29.67 in1004.7 mb 0.04 in1.0 mm 0.00 in0.0 mm 0.11 in2.8 mm
06:10 AM 69.9°F21.1°C 66.8°F19.3°C 90% 10.0 mph W16.1 kmh W 12.0 mph19.3 kmh 29.68 in1005.1 mb 0.04 in1.0 mm 0.00 in0.0 mm 0.11 in2.8 mm
06:12 AM 69.7°F20.9°C 66.3°F19.1°C 89% 4.0 mph W6.4 kmh W 12.0 mph19.3 kmh 29.67 in1004.7 mb 0.05 in1.3 mm 0.30 in7.6 mm 0.12 in3.0 mm
06:14 AM 69.6°F20.9°C 66.2°F19.0°C 89% 4.0 mph WSW6.4 kmh WSW 12.0 mph19.3 kmh 29.68 in1005.1 mb 0.05 in1.3 mm 0.00 in0.0 mm 0.12 in3.0 mm
06:16 AM 69.5°F20.8°C 66.1°F18.9°C 89% 7.0 mph WSW11.3 kmh WSW 12.0 mph19.3 kmh 29.68 in1005.1 mb 0.05 in1.3 mm 0.00 in0.0 mm 0.12 in3.0 mm
06:18 AM 69.4°F20.8°C 66.0°F18.9°C 89% 5.0 mph WNW8.0 kmh WNW 12.0 mph19.3 kmh 29.68 in1005.1 mb 0.05 in1.3 mm 0.00 in0.0 mm 0.12 in3.0 mm
06:20 AM 69.4°F20.8°C 66.0°F18.9°C 89% 8.0 mph W12.9 kmh W 12.0 mph19.3 kmh 29.68 in1005.1 mb 0.05 in1.3 mm 0.00 in0.0 mm 0.12 in3.0 mm
06:22 AM 69.3°F20.7°C 65.9°F18.8°C 89% 4.0 mph WNW6.4 kmh WNW 12.0 mph19.3 kmh 29.68 in1005.1 mb 0.05 in1.3 mm 0.00 in0.0 mm 0.12 in3.0 mm
06:24 AM 69.2°F20.7°C 65.8°F18.8°C 89% 6.0 mph W9.7 kmh W 12.0 mph19.3 kmh 29.68 in1005.1 mb 0.05 in1.3 mm 0.00 in0.0 mm 0.12 in3.0 mm
06:26 AM 69.0°F20.6°C 65.6°F18.7°C 89% 6.0 mph W9.7 kmh W 12.0 mph19.3 kmh 29.67 in1004.7 mb 0.05 in1.3 mm 0.00 in0.0 mm 0.12 in3.0 mm
06:28 AM 68.8°F20.4°C 65.4°F18.6°C 89% 4.0 mph WNW6.4 kmh WNW 12.0 mph19.3 kmh 29.67 in1004.7 mb 0.05 in1.3 mm 0.00 in0.0 mm 0.12 in3.0 mm
06:30 AM 68.7°F20.4°C 65.3°F18.5°C 89% 5.0 mph WNW8.0 kmh WNW 12.0 mph19.3 kmh 29.67 in1004.7 mb 0.05 in1.3 mm 0.00 in0.0 mm 0.12 in3.0 mm
06:32 AM 68.6°F20.3°C 65.2°F18.4°C 89% 6.0 mph W9.7 kmh W 12.0 mph19.3 kmh 29.67 in1004.7 mb 0.05 in1.3 mm 0.00 in0.0 mm 0.12 in3.0 mm
06:34 AM 68.5°F20.3°C 64.8°F18.2°C 88% 3.0 mph WNW4.8 kmh WNW 6.0 mph9.7 kmh 29.68 in1005.1 mb 0.05 in1.3 mm 0.00 in0.0 mm 0.12 in3.0 mm
06:36 AM 68.4°F20.2°C 64.7°F18.2°C 88% 7.0 mph W11.3 kmh W 8.0 mph12.9 kmh 29.68 in1005.1 mb 0.05 in1.3 mm 0.00 in0.0 mm 0.12 in3.0 mm
06:38 AM 68.3°F20.2°C 64.6°F18.1°C 88% 3.0 mph W4.8 kmh W 8.0 mph12.9 kmh 29.68 in1005.1 mb 0.05 in1.3 mm 0.00 in0.0 mm 0.12 in3.0 mm
06:40 AM 68.2°F20.1°C 64.5°F18.1°C 88% 6.0 mph W9.7 kmh W 8.0 mph12.9 kmh 29.68 in1005.1 mb 0.05 in1.3 mm 0.00 in0.0 mm 0.12 in3.0 mm
06:42 AM 68.2°F20.1°C 64.5°F18.1°C 88% 6.0 mph W9.7 kmh W 8.0 mph12.9 kmh 29.68 in1005.1 mb 0.05 in1.3 mm 0.00 in0.0 mm 0.12 in3.0 mm
06:44 AM 68.1°F20.1°C 64.4°F18.0°C 88% 3.0 mph WSW4.8 kmh WSW 8.0 mph12.9 kmh 29.68 in1005.1 mb 0.05 in1.3 mm 0.00 in0.0 mm 0.12 in3.0 mm
06:46 AM 68.0°F20.0°C 64.0°F17.8°C 87% 6.0 mph W9.7 kmh W 8.0 mph12.9 kmh 29.68 in1005.1 mb 0.05 in1.3 mm 0.00 in0.0 mm 0.12 in3.0 mm
06:48 AM 67.9°F19.9°C 63.9°F17.7°C 87% 8.0 mph W12.9 kmh W 9.0 mph14.5 kmh 29.68 in1005.1 mb 0.05 in1.3 mm 0.00 in0.0 mm 0.12 in3.0 mm
06:50 AM 67.8°F19.9°C 63.8°F17.7°C 87% 7.0 mph NW11.3 kmh NW 12.0 mph19.3 kmh 29.68 in1005.1 mb 0.05 in1.3 mm 0.00 in0.0 mm 0.12 in3.0 mm
06:52 AM 67.7°F19.8°C 63.4°F17.4°C 86% 9.0 mph WNW14.5 kmh WNW 12.0 mph19.3 kmh 29.68 in1005.1 mb 0.05 in1.3 mm 0.00 in0.0 mm 0.12 in3.0 mm
06:54 AM 67.7°F19.8°C 63.4°F17.4°C 86% 7.0 mph W11.3 kmh W 12.0 mph19.3 kmh 29.69 in1005.4 mb 0.05 in1.3 mm 0.00 in0.0 mm 0.12 in3.0 mm
06:56 AM 67.7°F19.8°C 63.4°F17.4°C 86% 3.0 mph W4.8 kmh W 12.0 mph19.3 kmh 29.69 in1005.4 mb 0.05 in1.3 mm 0.00 in0.0 mm 0.12 in3.0 mm
06:58 AM 67.6°F19.8°C 63.3°F17.4°C 86% 5.0 mph WNW8.0 kmh WNW 12.0 mph19.3 kmh 29.69 in1005.4 mb 0.05 in1.3 mm 0.00 in0.0 mm 0.12 in3.0 mm
07:00 AM 67.4°F19.7°C 63.1°F17.3°C 86% 9.0 mph WNW14.5 kmh WNW 12.0 mph19.3 kmh 29.69 in1005.4 mb 0.05 in1.3 mm 0.00 in0.0 mm 0.12 in3.0 mm
07:02 AM 67.3°F19.6°C 63.0°F17.2°C 86% 8.0 mph WNW12.9 kmh WNW 12.0 mph19.3 kmh 29.69 in1005.4 mb 0.05 in1.3 mm 0.00 in0.0 mm 0.12 in3.0 mm
07:04 AM 67.2°F19.6°C 62.9°F17.2°C 86% 7.0 mph WNW11.3 kmh WNW 9.0 mph14.5 kmh 29.69 in1005.4 mb 0.01 in0.3 mm 0.00 in0.0 mm 0.12 in3.0 mm
07:06 AM 67.2°F19.6°C 62.9°F17.2°C 86% 7.0 mph WNW11.3 kmh WNW 9.0 mph14.5 kmh 29.69 in1005.4 mb 0.01 in0.3 mm 0.00 in0.0 mm 0.12 in3.0 mm
07:08 AM 67.1°F19.5°C 62.8°F17.1°C 86% 5.0 mph WNW8.0 kmh WNW 9.0 mph14.5 kmh 29.69 in1005.4 mb 0.01 in0.3 mm 0.00 in0.0 mm 0.12 in3.0 mm
07:10 AM 67.0°F19.4°C 62.7°F17.1°C 86% 4.0 mph WNW6.4 kmh WNW 9.0 mph14.5 kmh 29.69 in1005.4 mb 0.01 in0.3 mm 0.00 in0.0 mm 0.12 in3.0 mm
07:12 AM 66.9°F19.4°C 62.6°F17.0°C 86% 10.0 mph NW16.1 kmh NW 10.0 mph16.1 kmh 29.69 in1005.4 mb 0.01 in0.3 mm 0.00 in0.0 mm 0.12 in3.0 mm
07:14 AM 66.8°F19.3°C 62.5°F16.9°C 86% 5.0 mph NW8.0 kmh NW 10.0 mph16.1 kmh 29.69 in1005.4 mb 0.01 in0.3 mm 0.00 in0.0 mm 0.12 in3.0 mm
07:16 AM 66.7°F19.3°C 62.1°F16.7°C 85% 5.0 mph WNW8.0 kmh WNW 11.0 mph17.7 kmh 29.69 in1005.4 mb 0.01 in0.3 mm 0.00 in0.0 mm 0.12 in3.0 mm
07:18 AM 66.5°F19.2°C 61.9°F16.6°C 85% 7.0 mph WNW11.3 kmh WNW 11.0 mph17.7 kmh 29.69 in1005.4 mb 0.01 in0.3 mm 0.00 in0.0 mm 0.12 in3.0 mm
07:20 AM 66.3°F19.1°C 61.7°F16.5°C 85% 6.0 mph NW9.7 kmh NW 11.0 mph17.7 kmh 29.69 in1005.4 mb 0.01 in0.3 mm 0.00 in0.0 mm 0.12 in3.0 mm
07:22 AM 66.2°F19.0°C 61.6°F16.4°C 85% 6.0 mph W9.7 kmh W 11.0 mph17.7 kmh 29.69 in1005.4 mb 0.01 in0.3 mm 0.00 in0.0 mm 0.12 in3.0 mm
07:24 AM 66.1°F18.9°C 61.5°F16.4°C 85% 5.0 mph WNW8.0 kmh WNW 11.0 mph17.7 kmh 29.70 in1005.8 mb 0.01 in0.3 mm 0.00 in0.0 mm 0.12 in3.0 mm
07:26 AM 66.0°F18.9°C 61.4°F16.3°C 85% 5.0 mph NW8.0 kmh NW 11.0 mph17.7 kmh 29.70 in1005.8 mb 0.01 in0.3 mm 0.00 in0.0 mm 0.12 in3.0 mm
07:28 AM 65.9°F18.8°C 61.3°F16.3°C 85% 8.0 mph WNW12.9 kmh WNW 11.0 mph17.7 kmh 29.70 in1005.8 mb 0.01 in0.3 mm 0.00 in0.0 mm 0.12 in3.0 mm
07:30 AM 65.7°F18.7°C 61.1°F16.2°C 85% 9.0 mph WNW14.5 kmh WNW 12.0 mph19.3 kmh 29.70 in1005.8 mb 0.01 in0.3 mm 0.00 in0.0 mm 0.12 in3.0 mm
07:32 AM 65.6°F18.7°C 61.0°F16.1°C 85% 9.0 mph WNW14.5 kmh WNW 12.0 mph19.3 kmh 29.70 in1005.8 mb 0.01 in0.3 mm 0.00 in0.0 mm 0.12 in3.0 mm
07:34 AM 65.4°F18.6°C 60.5°F15.8°C 84% 5.0 mph NW8.0 kmh NW 10.0 mph16.1 kmh 29.70 in1005.8 mb 0.00 in0.0 mm 0.00 in0.0 mm 0.12 in3.0 mm
07:36 AM 65.3°F18.5°C 60.7°F15.9°C 85% 10.0 mph NW16.1 kmh NW 10.0 mph16.1 kmh 29.70 in1005.8 mb 0.00 in0.0 mm 0.00 in0.0 mm 0.12 in3.0 mm
07:38 AM 65.3°F18.5°C 60.7°F15.9°C 85% 7.0 mph NW11.3 kmh NW 10.0 mph16.1 kmh 29.70 in1005.8 mb 0.00 in0.0 mm 0.00 in0.0 mm 0.12 in3.0 mm
07:40 AM 65.1°F18.4°C 60.5°F15.8°C 85% 5.0 mph WNW8.0 kmh WNW 10.0 mph16.1 kmh 29.71 in1006.1 mb 0.00 in0.0 mm 0.00 in0.0 mm 0.12 in3.0 mm
07:42 AM 64.9°F18.3°C 60.3°F15.7°C 85% 5.0 mph NW8.0 kmh NW 11.0 mph17.7 kmh 29.70 in1005.8 mb 0.00 in0.0 mm 0.00 in0.0 mm 0.12 in3.0 mm
07:44 AM 64.7°F18.2°C 59.8°F15.4°C 84% 4.0 mph NW6.4 kmh NW 11.0 mph17.7 kmh 29.71 in1006.1 mb 0.00 in0.0 mm 0.00 in0.0 mm 0.12 in3.0 mm
07:46 AM 64.3°F17.9°C 59.4°F15.2°C 84% 4.0 mph NW6.4 kmh NW 11.0 mph17.7 kmh 29.71 in1006.1 mb 0.00 in0.0 mm 0.00 in0.0 mm 0.12 in3.0 mm
07:48 AM 64.1°F17.8°C 59.2°F15.1°C 84% 4.0 mph WNW6.4 kmh WNW 11.0 mph17.7 kmh 29.70 in1005.8 mb 0.00 in0.0 mm 0.00 in0.0 mm 0.12 in3.0 mm
07:50 AM 64.0°F17.8°C 59.1°F15.1°C 84% 11.0 mph NW17.7 kmh NW 11.0 mph17.7 kmh 29.70 in1005.8 mb 0.00 in0.0 mm 0.00 in0.0 mm 0.12 in3.0 mm
07:52 AM 63.7°F17.6°C 59.1°F15.1°C 85% 9.0 mph NW14.5 kmh NW 11.0 mph17.7 kmh 29.70 in1005.8 mb 0.00 in0.0 mm 0.00 in0.0 mm 0.12 in3.0 mm
07:54 AM 63.5°F17.5°C 58.9°F14.9°C 85% 5.0 mph NW8.0 kmh NW 11.0 mph17.7 kmh 29.71 in1006.1 mb 0.00 in0.0 mm 0.00 in0.0 mm 0.12 in3.0 mm
07:56 AM 63.4°F17.4°C 58.8°F14.9°C 85% 8.0 mph NW12.9 kmh NW 11.0 mph17.7 kmh 29.71 in1006.1 mb 0.00 in0.0 mm 0.00 in0.0 mm 0.12 in3.0 mm
07:58 AM 63.4°F17.4°C 58.8°F14.9°C 85% 9.0 mph N14.5 kmh N 11.0 mph17.7 kmh 29.71 in1006.1 mb 0.00 in0.0 mm 0.00 in0.0 mm 0.12 in3.0 mm
08:00 AM 63.3°F17.4°C 58.7°F14.8°C 85% 6.0 mph NW9.7 kmh NW 11.0 mph17.7 kmh 29.71 in1006.1 mb 0.00 in0.0 mm 0.00 in0.0 mm 0.12 in3.0 mm
08:02 AM 63.2°F17.3°C 59.0°F15.0°C 86% 5.0 mph NW8.0 kmh NW 11.0 mph17.7 kmh 29.71 in1006.1 mb 0.00 in0.0 mm 0.00 in0.0 mm 0.12 in3.0 mm
08:04 AM 63.1°F17.3°C 58.9°F14.9°C 86% 5.0 mph NW8.0 kmh NW 10.0 mph16.1 kmh 29.71 in1006.1 mb 0.00 in0.0 mm 0.00 in0.0 mm 0.12 in3.0 mm
08:06 AM 63.0°F17.2°C 58.8°F14.9°C 86% 5.0 mph NNW8.0 kmh NNW 10.0 mph16.1 kmh 29.71 in1006.1 mb 0.00 in0.0 mm 0.00 in0.0 mm 0.12 in3.0 mm
08:08 AM 62.8°F17.1°C 58.6°F14.8°C 86% 3.0 mph NNW4.8 kmh NNW 10.0 mph16.1 kmh 29.71 in1006.1 mb 0.00 in0.0 mm 0.00 in0.0 mm 0.12 in3.0 mm
08:10 AM 62.6°F17.0°C 58.4°F14.7°C 86% 5.0 mph NW8.0 kmh NW 10.0 mph16.1 kmh 29.71 in1006.1 mb 0.00 in0.0 mm 0.00 in0.0 mm 0.12 in3.0 mm
08:12 AM 62.3°F16.8°C 58.1°F14.5°C 86% 11.0 mph NW17.7 kmh NW 11.0 mph17.7 kmh 29.71 in1006.1 mb 0.00 in0.0 mm 0.00 in0.0 mm 0.12 in3.0 mm
08:14 AM 62.1°F16.7°C 57.9°F14.4°C 86% 8.0 mph NW12.9 kmh NW 11.0 mph17.7 kmh 29.71 in1006.1 mb 0.00 in0.0 mm 0.00 in0.0 mm 0.12 in3.0 mm
08:16 AM 61.9°F16.6°C 57.7°F14.3°C 86% 6.0 mph NW9.7 kmh NW 11.0 mph17.7 kmh 29.72 in1006.4 mb 0.00 in0.0 mm 0.00 in0.0 mm 0.12 in3.0 mm
08:18 AM 61.7°F16.5°C 57.5°F14.2°C 86% 7.0 mph NW11.3 kmh NW 11.0 mph17.7 kmh 29.71 in1006.1 mb 0.00 in0.0 mm 0.00 in0.0 mm 0.12 in3.0 mm
08:20 AM 61.5°F16.4°C 57.3°F14.1°C 86% 5.0 mph NW8.0 kmh NW 11.0 mph17.7 kmh 29.71 in1006.1 mb 0.00 in0.0 mm 0.00 in0.0 mm 0.12 in3.0 mm
08:22 AM 61.4°F16.3°C 57.2°F14.0°C 86% 6.0 mph NW9.7 kmh NW 11.0 mph17.7 kmh 29.71 in1006.1 mb 0.00 in0.0 mm 0.00 in0.0 mm 0.12 in3.0 mm
08:24 AM 61.3°F16.3°C 57.1°F13.9°C 86% 5.0 mph NNW8.0 kmh NNW 11.0 mph17.7 kmh 29.71 in1006.1 mb 0.00 in0.0 mm 0.00 in0.0 mm 0.12 in3.0 mm
08:26 AM 61.1°F16.2°C 56.9°F13.8°C 86% 11.0 mph NW17.7 kmh NW 11.0 mph17.7 kmh 29.72 in1006.4 mb 0.00 in0.0 mm 0.00 in0.0 mm 0.12 in3.0 mm
08:28 AM 60.9°F16.1°C 56.7°F13.7°C 86% 4.0 mph NW6.4 kmh NW 11.0 mph17.7 kmh 29.72 in1006.4 mb 0.00 in0.0 mm 0.00 in0.0 mm 0.12 in3.0 mm
08:30 AM 60.9°F16.1°C 56.4°F13.6°C 85% 5.0 mph NNW8.0 kmh NNW 11.0 mph17.7 kmh 29.72 in1006.4 mb 0.00 in0.0 mm 0.00 in0.0 mm 0.12 in3.0 mm
08:32 AM 60.8°F16.0°C 56.3°F13.5°C 85% 8.0 mph NNW12.9 kmh NNW 13.0 mph20.9 kmh 29.72 in1006.4 mb 0.00 in0.0 mm 0.00 in0.0 mm 0.12 in3.0 mm
08:34 AM 60.7°F15.9°C 56.2°F13.4°C 85% 6.0 mph NNW9.7 kmh NNW 14.0 mph22.5 kmh 29.72 in1006.4 mb 0.00 in0.0 mm 0.00 in0.0 mm 0.12 in3.0 mm
08:36 AM 60.7°F15.9°C 56.2°F13.4°C 85% 8.0 mph NW12.9 kmh NW 14.0 mph22.5 kmh 29.72 in1006.4 mb 0.00 in0.0 mm 0.00 in0.0 mm 0.12 in3.0 mm
08:38 AM 60.7°F15.9°C 56.2°F13.4°C 85% 4.0 mph NW6.4 kmh NW 14.0 mph22.5 kmh 29.73 in1006.8 mb 0.00 in0.0 mm 0.00 in0.0 mm 0.12 in3.0 mm
08:40 AM 60.7°F15.9°C 56.2°F13.4°C 85% 13.0 mph WNW20.9 kmh WNW 14.0 mph22.5 kmh 29.73 in1006.8 mb 0.00 in0.0 mm 0.00 in0.0 mm 0.12 in3.0 mm
08:42 AM 60.7°F15.9°C 56.2°F13.4°C 85% 12.0 mph WNW19.3 kmh WNW 14.0 mph22.5 kmh 29.73 in1006.8 mb 0.00 in0.0 mm 0.00 in0.0 mm 0.12 in3.0 mm
08:44 AM 60.6°F15.9°C 55.8°F13.2°C 84% 8.0 mph NNW12.9 kmh NNW 14.0 mph22.5 kmh 29.73 in1006.8 mb 0.00 in0.0 mm 0.00 in0.0 mm 0.12 in3.0 mm
08:46 AM 60.7°F15.9°C 56.2°F13.4°C 85% 8.0 mph NW12.9 kmh NW 14.0 mph22.5 kmh 29.73 in1006.8 mb 0.00 in0.0 mm 0.00 in0.0 mm 0.12 in3.0 mm
08:48 AM 60.7°F15.9°C 55.8°F13.2°C 84% 8.0 mph WNW12.9 kmh WNW 14.0 mph22.5 kmh 29.72 in1006.4 mb 0.00 in0.0 mm 0.00 in0.0 mm 0.12 in3.0 mm
08:50 AM 60.8°F16.0°C 55.9°F13.3°C 84% 9.0 mph NW14.5 kmh NW 14.0 mph22.5 kmh 29.72 in1006.4 mb 0.00 in0.0 mm 0.00 in0.0 mm 0.12 in3.0 mm
08:52 AM 60.8°F16.0°C 55.9°F13.3°C 84% 4.0 mph NW6.4 kmh NW 14.0 mph22.5 kmh 29.73 in1006.8 mb 0.00 in0.0 mm 0.00 in0.0 mm 0.12 in3.0 mm
08:54 AM 60.8°F16.0°C 55.9°F13.3°C 84% 8.0 mph NNW12.9 kmh NNW 14.0 mph22.5 kmh 29.73 in1006.8 mb 0.00 in0.0 mm 0.00 in0.0 mm 0.12 in3.0 mm
08:56 AM 60.9°F16.1°C 55.7°F13.2°C 83% 12.0 mph NW19.3 kmh NW 14.0 mph22.5 kmh 29.73 in1006.8 mb 0.00 in0.0 mm 0.00 in0.0 mm 0.12 in3.0 mm
08:58 AM 61.0°F16.1°C 55.8°F13.2°C 83% 7.0 mph WNW11.3 kmh WNW 14.0 mph22.5 kmh 29.73 in1006.8 mb 0.00 in0.0 mm 0.00 in0.0 mm 0.12 in3.0 mm
09:00 AM 61.0°F16.1°C 55.8°F13.2°C 83% 13.0 mph WNW20.9 kmh WNW 16.0 mph25.7 kmh 29.73 in1006.8 mb 0.00 in0.0 mm 0.00 in0.0 mm 0.12 in3.0 mm
09:02 AM 61.0°F16.1°C 55.5°F13.1°C 82% 11.0 mph WNW17.7 kmh WNW 17.0 mph27.4 kmh 29.73 in1006.8 mb 0.00 in0.0 mm 0.00 in0.0 mm 0.12 in3.0 mm
09:04 AM 61.1°F16.2°C 55.6°F13.1°C 82% 10.0 mph NW16.1 kmh NW 16.0 mph25.7 kmh 29.73 in1006.8 mb 0.00 in0.0 mm 0.00 in0.0 mm 0.12 in3.0 mm
09:06 AM 61.0°F16.1°C 55.5°F13.1°C 82% 11.0 mph NW17.7 kmh NW 16.0 mph25.7 kmh 29.74 in1007.1 mb 0.00 in0.0 mm 0.00 in0.0 mm 0.12 in3.0 mm
09:08 AM 61.0°F16.1°C 55.5°F13.1°C 82% 8.0 mph W12.9 kmh W 16.0 mph25.7 kmh 29.74 in1007.1 mb 0.00 in0.0 mm 0.00 in0.0 mm 0.12 in3.0 mm
09:10 AM 61.0°F16.1°C 55.5°F13.1°C 82% 4.0 mph WNW6.4 kmh WNW 16.0 mph25.7 kmh 29.74 in1007.1 mb 0.00 in0.0 mm 0.00 in0.0 mm 0.12 in3.0 mm
09:12 AM 60.9°F16.1°C 55.4°F13.0°C 82% 7.0 mph W11.3 kmh W 16.0 mph25.7 kmh 29.74 in1007.1 mb 0.00 in0.0 mm 0.00 in0.0 mm 0.12 in3.0 mm
09:14 AM 60.8°F16.0°C 55.3°F12.9°C 82% 5.0 mph WNW8.0 kmh WNW 16.0 mph25.7 kmh 29.74 in1007.1 mb 0.00 in0.0 mm 0.00 in0.0 mm 0.12 in3.0 mm
09:16 AM 60.8°F16.0°C 55.3°F12.9°C 82% 8.0 mph W12.9 kmh W 16.0 mph25.7 kmh 29.74 in1007.1 mb 0.00 in0.0 mm 0.00 in0.0 mm 0.12 in3.0 mm
09:18 AM 60.8°F16.0°C 55.3°F12.9°C 82% 3.0 mph W4.8 kmh W 16.0 mph25.7 kmh 29.74 in1007.1 mb 0.00 in0.0 mm 0.00 in0.0 mm 0.12 in3.0 mm
09:20 AM 60.8°F16.0°C 55.3°F12.9°C 82% 5.0 mph WNW8.0 kmh WNW 16.0 mph25.7 kmh 29.74 in1007.1 mb 0.00 in0.0 mm 0.00 in0.0 mm 0.12 in3.0 mm
09:22 AM 60.8°F16.0°C 55.3°F12.9°C 82% 5.0 mph WNW8.0 kmh WNW 16.0 mph25.7 kmh 29.74 in1007.1 mb 0.00 in0.0 mm 0.00 in0.0 mm 0.12 in3.0 mm
09:24 AM 60.8°F16.0°C 55.3°F12.9°C 82% 7.0 mph NW11.3 kmh NW 16.0 mph25.7 kmh 29.74 in1007.1 mb 0.00 in0.0 mm 0.00 in0.0 mm 0.12 in3.0 mm
09:26 AM 60.7°F15.9°C 55.2°F12.9°C 82% 6.0 mph NW9.7 kmh NW 16.0 mph25.7 kmh 29.74 in1007.1 mb 0.00 in0.0 mm 0.00 in0.0 mm 0.12 in3.0 mm
09:28 AM 60.6°F15.9°C 55.1°F12.8°C 82% 9.0 mph NW14.5 kmh NW 16.0 mph25.7 kmh 29.74 in1007.1 mb 0.00 in0.0 mm 0.00 in0.0 mm 0.12 in3.0 mm
09:30 AM 60.5°F15.8°C 54.7°F12.6°C 81% 5.0 mph NW8.0 kmh NW 16.0 mph25.7 kmh 29.75 in1007.5 mb 0.00 in0.0 mm 0.00 in0.0 mm 0.12 in3.0 mm
09:32 AM 60.5°F15.8°C 55.0°F12.8°C 82% 5.0 mph WNW8.0 kmh WNW 16.0 mph25.7 kmh 29.74 in1007.1 mb 0.00 in0.0 mm 0.00 in0.0 mm 0.12 in3.0 mm
09:34 AM 60.5°F15.8°C 55.0°F12.8°C 82% 9.0 mph NW14.5 kmh NW 10.0 mph16.1 kmh 29.75 in1007.5 mb 0.00 in0.0 mm 0.00 in0.0 mm 0.12 in3.0 mm
09:36 AM 60.6°F15.9°C 55.1°F12.8°C 82% 1.0 mph NW1.6 kmh NW 10.0 mph16.1 kmh 29.75 in1007.5 mb 0.00 in0.0 mm 0.00 in0.0 mm 0.12 in3.0 mm
09:38 AM 60.7°F15.9°C 55.5°F13.1°C 83% 4.0 mph WNW6.4 kmh WNW 10.0 mph16.1 kmh 29.75 in1007.5 mb 0.00 in0.0 mm 0.00 in0.0 mm 0.12 in3.0 mm
09:40 AM 60.7°F15.9°C 55.2°F12.9°C 82% 2.0 mph NW3.2 kmh NW 10.0 mph16.1 kmh 29.75 in1007.5 mb 0.00 in0.0 mm 0.00 in0.0 mm 0.12 in3.0 mm
09:42 AM 60.8°F16.0°C 55.6°F13.1°C 83% 2.0 mph NW3.2 kmh NW 10.0 mph16.1 kmh 29.75 in1007.5 mb 0.00 in0.0 mm 0.00 in0.0 mm 0.12 in3.0 mm
09:44 AM 60.9°F16.1°C 55.4°F13.0°C 82% 8.0 mph WNW12.9 kmh WNW 10.0 mph16.1 kmh 29.75 in1007.5 mb 0.00 in0.0 mm 0.00 in0.0 mm 0.12 in3.0 mm
09:46 AM 61.0°F16.1°C 55.5°F13.1°C 82% 8.0 mph NW12.9 kmh NW 11.0 mph17.7 kmh 29.75 in1007.5 mb 0.00 in0.0 mm 0.00 in0.0 mm 0.12 in3.0 mm
09:48 AM 61.2°F16.2°C 55.7°F13.2°C 82% 8.0 mph NW12.9 kmh NW 12.0 mph19.3 kmh 29.75 in1007.5 mb 0.00 in0.0 mm 0.00 in0.0 mm 0.12 in3.0 mm
09:50 AM 61.4°F16.3°C 55.9°F13.3°C 82% 14.0 mph NNW22.5 kmh NNW 14.0 mph22.5 kmh 29.75 in1007.5 mb 0.00 in0.0 mm 0.00 in0.0 mm 0.12 in3.0 mm
09:52 AM 61.6°F16.4°C 55.7°F13.2°C 81% 6.0 mph NW9.7 kmh NW 14.0 mph22.5 kmh 29.75 in1007.5 mb 0.00 in0.0 mm 0.00 in0.0 mm 0.12 in3.0 mm
09:54 AM 61.6°F16.4°C 55.4°F13.0°C 80% 10.0 mph NW16.1 kmh NW 14.0 mph22.5 kmh 29.75 in1007.5 mb 0.00 in0.0 mm 0.00 in0.0 mm 0.12 in3.0 mm
09:56 AM 61.7°F16.5°C 55.8°F13.2°C 81% 5.0 mph NW8.0 kmh NW 14.0 mph22.5 kmh 29.75 in1007.5 mb 0.00 in0.0 mm 0.00 in0.0 mm 0.12 in3.0 mm
09:58 AM 61.8°F16.6°C 55.9°F13.3°C 81% 5.0 mph NW8.0 kmh NW 14.0 mph22.5 kmh 29.75 in1007.5 mb 0.00 in0.0 mm 0.00 in0.0 mm 0.12 in3.0 mm
10:00 AM 61.9°F16.6°C 55.7°F13.2°C 80% 9.0 mph W14.5 kmh W 14.0 mph22.5 kmh 29.75 in1007.5 mb 0.00 in0.0 mm 0.00 in0.0 mm 0.12 in3.0 mm
10:02 AM 62.0°F16.7°C 55.8°F13.2°C 80% 6.0 mph NW9.7 kmh NW 14.0 mph22.5 kmh 29.75 in1007.5 mb 0.00 in0.0 mm 0.00 in0.0 mm 0.12 in3.0 mm
10:04 AM 62.1°F16.7°C 55.9°F13.3°C 80% 9.0 mph NW14.5 kmh NW 11.0 mph17.7 kmh 29.75 in1007.5 mb 0.00 in0.0 mm 0.00 in0.0 mm 0.12 in3.0 mm
10:06 AM 62.2°F16.8°C 56.0°F13.3°C 80% 7.0 mph WNW11.3 kmh WNW 12.0 mph19.3 kmh 29.75 in1007.5 mb 0.00 in0.0 mm 0.00 in0.0 mm 0.12 in3.0 mm
10:08 AM 62.3°F16.8°C 55.7°F13.2°C 79% 6.0 mph NW9.7 kmh NW 12.0 mph19.3 kmh 29.75 in1007.5 mb 0.00 in0.0 mm 0.00 in0.0 mm 0.12 in3.0 mm
10:10 AM 62.4°F16.9°C 55.8°F13.2°C 79% 8.0 mph NW12.9 kmh NW 12.0 mph19.3 kmh 29.75 in1007.5 mb 0.00 in0.0 mm 0.00 in0.0 mm 0.12 in3.0 mm
10:12 AM 62.5°F16.9°C 55.6°F13.1°C 78% 9.0 mph NW14.5 kmh NW 13.0 mph20.9 kmh 29.75 in1007.5 mb 0.00 in0.0 mm 0.00 in0.0 mm 0.12 in3.0 mm
10:14 AM 62.7°F17.1°C 55.4°F13.0°C 77% 8.0 mph NW12.9 kmh NW 14.0 mph22.5 kmh 29.74 in1007.1 mb 0.00 in0.0 mm 0.00 in0.0 mm 0.12 in3.0 mm
10:16 AM 62.8°F17.1°C 54.8°F12.7°C 75% 11.0 mph NW17.7 kmh NW 16.0 mph25.7 kmh 29.75 in1007.5 mb 0.00 in0.0 mm 0.00 in0.0 mm 0.12 in3.0 mm
10:18 AM 62.8°F17.1°C 54.4°F12.4°C 74% 8.0 mph NW12.9 kmh NW 16.0 mph25.7 kmh 29.75 in1007.5 mb 0.00 in0.0 mm 0.00 in0.0 mm 0.12 in3.0 mm
10:20 AM 63.0°F17.2°C 54.6°F12.6°C 74% 8.0 mph NW12.9 kmh NW 16.0 mph25.7 kmh 29.75 in1007.5 mb 0.00 in0.0 mm 0.00 in0.0 mm 0.12 in3.0 mm
10:22 AM 63.0°F17.2°C 54.2°F12.3°C 73% 6.0 mph W9.7 kmh W 16.0 mph25.7 kmh 29.76 in1007.8 mb 0.00 in0.0 mm 0.00 in0.0 mm 0.12 in3.0 mm
10:24 AM 63.2°F17.3°C 54.0°F12.2°C 72% 5.0 mph WNW8.0 kmh WNW 16.0 mph25.7 kmh 29.76 in1007.8 mb 0.00 in0.0 mm 0.00 in0.0 mm 0.12 in3.0 mm
10:26 AM 63.3°F17.4°C 54.1°F12.3°C 72% 4.0 mph W6.4 kmh W 16.0 mph25.7 kmh 29.76 in1007.8 mb 0.00 in0.0 mm 0.00 in0.0 mm 0.12 in3.0 mm
10:28 AM 63.5°F17.5°C 54.3°F12.4°C 72% 11.0 mph NW17.7 kmh NW 16.0 mph25.7 kmh 29.76 in1007.8 mb 0.00 in0.0 mm 0.00 in0.0 mm 0.12 in3.0 mm
10:30 AM 63.5°F17.5°C 53.2°F11.8°C 69% 7.0 mph NW11.3 kmh NW 16.0 mph25.7 kmh 29.76 in1007.8 mb 0.00 in0.0 mm 0.00 in0.0 mm 0.12 in3.0 mm
10:32 AM 63.6°F17.6°C 52.9°F11.6°C 68% 6.0 mph NW9.7 kmh NW 16.0 mph25.7 kmh 29.76 in1007.8 mb 0.00 in0.0 mm 0.00 in0.0 mm 0.12 in3.0 mm
10:34 AM 63.7°F17.6°C 53.0°F11.7°C 68% 13.0 mph NW20.9 kmh NW 13.0 mph20.9 kmh 29.76 in1007.8 mb 0.00 in0.0 mm 0.00 in0.0 mm 0.12 in3.0 mm
10:36 AM 63.8°F17.7°C 52.7°F11.5°C 67% 12.0 mph NW19.3 kmh NW 15.0 mph24.1 kmh 29.75 in1007.5 mb 0.00 in0.0 mm 0.00 in0.0 mm 0.12 in3.0 mm
10:38 AM 63.8°F17.7°C 52.2°F11.2°C 66% 18.0 mph NNW29.0 kmh NNW 18.0 mph29.0 kmh 29.76 in1007.8 mb 0.00 in0.0 mm 0.00 in0.0 mm 0.12 in3.0 mm
10:40 AM 63.9°F17.7°C 52.3°F11.3°C 66% 9.0 mph NW14.5 kmh NW 18.0 mph29.0 kmh 29.75 in1007.5 mb 0.00 in0.0 mm 0.00 in0.0 mm 0.12 in3.0 mm
10:42 AM 64.1°F17.8°C 52.5°F11.4°C 66% 8.0 mph NW12.9 kmh NW 18.0 mph29.0 kmh 29.75 in1007.5 mb 0.00 in0.0 mm 0.00 in0.0 mm 0.12 in3.0 mm
10:44 AM 64.2°F17.9°C 52.6°F11.4°C 66% 11.0 mph WNW17.7 kmh WNW 18.0 mph29.0 kmh 29.75 in1007.5 mb 0.00 in0.0 mm 0.00 in0.0 mm 0.12 in3.0 mm
10:46 AM 64.3°F17.9°C 51.0°F10.6°C 62% 11.0 mph NNW17.7 kmh NNW 18.0 mph29.0 kmh 29.76 in1007.8 mb 0.00 in0.0 mm 0.00 in0.0 mm 0.12 in3.0 mm
10:48 AM 64.3°F17.9°C 51.0°F10.6°C 62% 10.0 mph NW16.1 kmh NW 18.0 mph29.0 kmh 29.76 in1007.8 mb 0.00 in0.0 mm 0.00 in0.0 mm 0.12 in3.0 mm
10:50 AM 64.2°F17.9°C 50.5°F10.3°C 61% 9.0 mph NW14.5 kmh NW 18.0 mph29.0 kmh 29.76 in1007.8 mb 0.00 in0.0 mm 0.00 in0.0 mm 0.12 in3.0 mm
10:52 AM 64.2°F17.9°C 50.5°F10.3°C 61% 13.0 mph NW20.9 kmh NW 18.0 mph29.0 kmh 29.76 in1007.8 mb 0.00 in0.0 mm 0.00 in0.0 mm 0.12 in3.0 mm
10:54 AM 64.1°F17.8°C 49.0°F9.4°C 58% 8.0 mph NW12.9 kmh NW 18.0 mph29.0 kmh 29.76 in1007.8 mb 0.00 in0.0 mm 0.00 in0.0 mm 0.12 in3.0 mm
10:56 AM 63.9°F17.7°C 49.8°F9.9°C 60% 14.0 mph NW22.5 kmh NW 18.0 mph29.0 kmh 29.75 in1007.5 mb 0.00 in0.0 mm 0.00 in0.0 mm 0.12 in3.0 mm
10:58 AM 63.8°F17.7°C 49.2°F9.6°C 59% 9.0 mph NW14.5 kmh NW 18.0 mph29.0 kmh 29.75 in1007.5 mb 0.00 in0.0 mm 0.00 in0.0 mm 0.12 in3.0 mm
11:00 AM 63.8°F17.7°C 50.1°F10.1°C 61% 10.0 mph NW16.1 kmh NW 18.0 mph29.0 kmh 29.75 in1007.5 mb 0.00 in0.0 mm 0.00 in0.0 mm 0.12 in3.0 mm
11:02 AM 63.9°F17.7°C 50.2°F10.1°C 61% 5.0 mph WNW8.0 kmh WNW 18.0 mph29.0 kmh 29.75 in1007.5 mb 0.00 in0.0 mm 0.00 in0.0 mm 0.12 in3.0 mm
11:04 AM 63.9°F17.7°C 49.8°F9.9°C 60% 10.0 mph NW16.1 kmh NW 16.0 mph25.7 kmh 29.75 in1007.5 mb 0.00 in0.0 mm 0.00 in0.0 mm 0.12 in3.0 mm
11:06 AM 63.9°F17.7°C 49.8°F9.9°C 60% 11.0 mph NW17.7 kmh NW 17.0 mph27.4 kmh 29.75 in1007.5 mb 0.00 in0.0 mm 0.00 in0.0 mm 0.12 in3.0 mm
11:08 AM 64.0°F17.8°C 49.9°F9.9°C 60% 13.0 mph NW20.9 kmh NW 17.0 mph27.4 kmh 29.75 in1007.5 mb 0.00 in0.0 mm 0.00 in0.0 mm 0.12 in3.0 mm
11:10 AM 64.1°F17.8°C 49.0°F9.4°C 58% 8.0 mph N12.9 kmh N 20.0 mph32.2 kmh 29.75 in1007.5 mb 0.00 in0.0 mm 0.00 in0.0 mm 0.12 in3.0 mm
11:12 AM 64.2°F17.9°C 48.7°F9.3°C 57% 14.0 mph NW22.5 kmh NW 21.0 mph33.8 kmh 29.75 in1007.5 mb 0.00 in0.0 mm 0.00 in0.0 mm 0.12 in3.0 mm
11:14 AM 64.2°F17.9°C 48.7°F9.3°C 57% 9.0 mph NW14.5 kmh NW 21.0 mph33.8 kmh 29.75 in1007.5 mb 0.00 in0.0 mm 0.00 in0.0 mm 0.12 in3.0 mm
11:16 AM 64.4°F18.0°C 49.8°F9.9°C 59% 8.0 mph WNW12.9 kmh WNW 21.0 mph33.8 kmh 29.75 in1007.5 mb 0.00 in0.0 mm 0.00 in0.0 mm 0.12 in3.0 mm
11:18 AM 64.7°F18.2°C 50.1°F10.1°C 59% 9.0 mph WNW14.5 kmh WNW 21.0 mph33.8 kmh 29.75 in1007.5 mb 0.00 in0.0 mm 0.00 in0.0 mm 0.12 in3.0 mm
11:20 AM 64.9°F18.3°C 48.9°F9.4°C 56% 12.0 mph WNW19.3 kmh WNW 21.0 mph33.8 kmh 29.75 in1007.5 mb 0.00 in0.0 mm 0.00 in0.0 mm 0.12 in3.0 mm
11:22 AM 64.9°F18.3°C 48.9°F9.4°C 56% 8.0 mph WNW12.9 kmh WNW 21.0 mph33.8 kmh 29.75 in1007.5 mb 0.00 in0.0 mm 0.00 in0.0 mm 0.12 in3.0 mm
11:24 AM 65.0°F18.3°C 48.9°F9.4°C 56% 14.0 mph WNW22.5 kmh WNW 21.0 mph33.8 kmh 29.75 in1007.5 mb 0.00 in0.0 mm 0.00 in0.0 mm 0.12 in3.0 mm
11:26 AM 64.8°F18.2°C 48.3°F9.1°C 55% 14.0 mph W22.5 kmh W 21.0 mph33.8 kmh 29.75 in1007.5 mb 0.00 in0.0 mm 0.00 in0.0 mm 0.12 in3.0 mm
11:28 AM 64.9°F18.3°C 48.4°F9.1°C 55% 10.0 mph NW16.1 kmh NW 21.0 mph33.8 kmh 29.75 in1007.5 mb 0.00 in0.0 mm 0.00 in0.0 mm 0.12 in3.0 mm
11:30 AM 64.9°F18.3°C 48.4°F9.1°C 55% 14.0 mph NW22.5 kmh NW 21.0 mph33.8 kmh 29.75 in1007.5 mb 0.00 in0.0 mm 0.00 in0.0 mm 0.12 in3.0 mm
11:31 AM 65.0°F18.3°C 48.5°F9.2°C 55% 15.0 mph NW24.1 kmh NW 21.0 mph33.8 kmh 29.75 in1007.5 mb 0.00 in0.0 mm 0.00 in0.0 mm 0.12 in3.0 mm
11:34 AM 65.0°F18.3°C 48.0°F8.9°C 54% 8.0 mph NW12.9 kmh NW 17.0 mph27.4 kmh 29.75 in1007.5 mb 0.00 in0.0 mm 0.00 in0.0 mm 0.12 in3.0 mm
11:36 AM 65.0°F18.3°C 48.0°F8.9°C 54% 10.0 mph WNW16.1 kmh WNW 17.0 mph27.4 kmh 29.75 in1007.5 mb 0.00 in0.0 mm 0.00 in0.0 mm 0.12 in3.0 mm
11:37 AM 65.1°F18.4°C 48.1°F8.9°C 54% 13.0 mph NNW20.9 kmh NNW 17.0 mph27.4 kmh 29.75 in1007.5 mb 0.00 in0.0 mm 0.00 in0.0 mm 0.12 in3.0 mm
11:40 AM 65.1°F18.4°C 48.1°F8.9°C 54% 11.0 mph NW17.7 kmh NW 17.0 mph27.4 kmh 29.75 in1007.5 mb 0.00 in0.0 mm 0.00 in0.0 mm 0.12 in3.0 mm
11:42 AM 65.2°F18.4°C 47.7°F8.7°C 53% 4.0 mph NW6.4 kmh NW 17.0 mph27.4 kmh 29.75 in1007.5 mb 0.00 in0.0 mm 0.00 in0.0 mm 0.12 in3.0 mm
11:44 AM 65.3°F18.5°C 47.2°F8.4°C 52% 12.0 mph NW19.3 kmh NW 17.0 mph27.4 kmh 29.75 in1007.5 mb 0.00 in0.0 mm 0.00 in0.0 mm 0.12 in3.0 mm
11:46 AM 65.4°F18.6°C 47.3°F8.5°C 52% 10.0 mph NW16.1 kmh NW 17.0 mph27.4 kmh 29.75 in1007.5 mb 0.00 in0.0 mm 0.00 in0.0 mm 0.12 in3.0 mm
11:48 AM 65.5°F18.6°C 46.9°F8.3°C 51% 9.0 mph N14.5 kmh N 17.0 mph27.4 kmh 29.75 in1007.5 mb 0.00 in0.0 mm 0.00 in0.0 mm 0.12 in3.0 mm
11:50 AM 65.5°F18.6°C 46.9°F8.3°C 51% 9.0 mph NW14.5 kmh NW 17.0 mph27.4 kmh 29.75 in1007.5 mb 0.00 in0.0 mm 0.00 in0.0 mm 0.12 in3.0 mm
11:52 AM 65.6°F18.7°C 47.5°F8.6°C 52% 4.0 mph NNW6.4 kmh NNW 17.0 mph27.4 kmh 29.75 in1007.5 mb 0.00 in0.0 mm 0.00 in0.0 mm 0.12 in3.0 mm
11:54 AM 65.8°F18.8°C 47.7°F8.7°C 52% 11.0 mph NW17.7 kmh NW 17.0 mph27.4 kmh 29.74 in1007.1 mb 0.00 in0.0 mm 0.00 in0.0 mm 0.12 in3.0 mm
11:56 AM 65.7°F18.7°C 46.6°F8.1°C 50% 19.0 mph WNW30.6 kmh WNW 20.0 mph32.2 kmh 29.75 in1007.5 mb 0.00 in0.0 mm 0.00 in0.0 mm 0.12 in3.0 mm
11:58 AM 65.7°F18.7°C 46.6°F8.1°C 50% 12.0 mph NW19.3 kmh NW 20.0 mph32.2 kmh 29.75 in1007.5 mb 0.00 in0.0 mm 0.00 in0.0 mm 0.12 in3.0 mm
12:00 PM 65.7°F18.7°C 46.0°F7.8°C 49% 13.0 mph NW20.9 kmh NW 20.0 mph32.2 kmh 29.75 in1007.5 mb 0.00 in0.0 mm 0.00 in0.0 mm 0.12 in3.0 mm
12:02 PM 65.8°F18.8°C 47.2°F8.4°C 51% 10.0 mph NW16.1 kmh NW 20.0 mph32.2 kmh 29.74 in1007.1 mb 0.00 in0.0 mm 0.00 in0.0 mm 0.12 in3.0 mm
12:04 PM 65.9°F18.8°C 46.2°F7.9°C 49% 17.0 mph W27.4 kmh W 17.0 mph27.4 kmh 29.74 in1007.1 mb 0.00 in0.0 mm 0.00 in0.0 mm 0.12 in3.0 mm
12:06 PM 66.0°F18.9°C 44.7°F7.1°C 46% 9.0 mph W14.5 kmh W 17.0 mph27.4 kmh 29.74 in1007.1 mb 0.00 in0.0 mm 0.00 in0.0 mm 0.12 in3.0 mm
12:08 PM 66.0°F18.9°C 44.1°F6.7°C 45% 8.0 mph WNW12.9 kmh WNW 17.0 mph27.4 kmh 29.74 in1007.1 mb 0.00 in0.0 mm 0.00 in0.0 mm 0.12 in3.0 mm
12:09 PM 66.0°F18.9°C 44.7°F7.1°C 46% 13.0 mph W20.9 kmh W 17.0 mph27.4 kmh 29.74 in1007.1 mb 0.00 in0.0 mm 0.00 in0.0 mm 0.12 in3.0 mm
12:11 PM 65.9°F18.8°C 44.6°F7.0°C 46% 9.0 mph WNW14.5 kmh WNW 17.0 mph27.4 kmh 29.74 in1007.1 mb 0.00 in0.0 mm 0.00 in0.0 mm 0.12 in3.0 mm
12:14 PM 65.9°F18.8°C 44.6°F7.0°C 46% 13.0 mph WNW20.9 kmh WNW 17.0 mph27.4 kmh 29.73 in1006.8 mb 0.00 in0.0 mm 0.00 in0.0 mm 0.12 in3.0 mm
12:16 PM 66.0°F18.9°C 44.1°F6.7°C 45% 12.0 mph WNW19.3 kmh WNW 17.0 mph27.4 kmh 29.73 in1006.8 mb 0.00 in0.0 mm 0.00 in0.0 mm 0.12 in3.0 mm
12:18 PM 66.1°F18.9°C 44.2°F6.8°C 45% 5.0 mph WNW8.0 kmh WNW 17.0 mph27.4 kmh 29.73 in1006.8 mb 0.00 in0.0 mm 0.00 in0.0 mm 0.12 in3.0 mm
12:19 PM 66.3°F19.1°C 44.4°F6.9°C 45% 12.0 mph W19.3 kmh W 17.0 mph27.4 kmh 29.73 in1006.8 mb 0.00 in0.0 mm 0.00 in0.0 mm 0.12 in3.0 mm
12:21 PM 66.4°F19.1°C 44.4°F6.9°C 45% 13.0 mph NW20.9 kmh NW 17.0 mph27.4 kmh 29.73 in1006.8 mb 0.00 in0.0 mm 0.00 in0.0 mm 0.12 in3.0 mm
12:24 PM 66.3°F19.1°C 43.2°F6.2°C 43% 11.0 mph NW17.7 kmh NW 17.0 mph27.4 kmh 29.73 in1006.8 mb 0.00 in0.0 mm 0.00 in0.0 mm 0.12 in3.0 mm
12:25 PM 66.2°F19.0°C 43.1°F6.2°C 43% 13.0 mph NW20.9 kmh NW 17.0 mph27.4 kmh 29.73 in1006.8 mb 0.00 in0.0 mm 0.00 in0.0 mm 0.12 in3.0 mm
12:27 PM 66.2°F19.0°C 43.7°F6.5°C 44% 11.0 mph WNW17.7 kmh WNW 17.0 mph27.4 kmh 29.73 in1006.8 mb 0.00 in0.0 mm 0.00 in0.0 mm 0.12 in3.0 mm
12:29 PM 66.2°F19.0°C 44.3°F6.8°C 45% 10.0 mph NNW16.1 kmh NNW 17.0 mph27.4 kmh 29.73 in1006.8 mb 0.00 in0.0 mm 0.00 in0.0 mm 0.12 in3.0 mm
12:32 PM 66.3°F19.1°C 43.8°F6.6°C 44% 9.0 mph WNW14.5 kmh WNW 18.0 mph29.0 kmh 29.72 in1006.4 mb 0.00 in0.0 mm 0.00 in0.0 mm 0.12 in3.0 mm
12:34 PM 66.2°F19.0°C 44.3°F6.8°C 45% 12.0 mph NW19.3 kmh NW 15.0 mph24.1 kmh 29.72 in1006.4 mb 0.00 in0.0 mm 0.00 in0.0 mm 0.12 in3.0 mm
12:35 PM 66.3°F19.1°C 44.9°F7.2°C 46% 13.0 mph WNW20.9 kmh WNW 15.0 mph24.1 kmh 29.72 in1006.4 mb 0.00 in0.0 mm 0.00 in0.0 mm 0.12 in3.0 mm
12:37 PM 66.4°F19.1°C 45.6°F7.6°C 47% 10.0 mph WNW16.1 kmh WNW 15.0 mph24.1 kmh 29.72 in1006.4 mb 0.00 in0.0 mm 0.00 in0.0 mm 0.12 in3.0 mm
12:40 PM 66.5°F19.2°C 44.5°F6.9°C 45% 8.0 mph WNW12.9 kmh WNW 15.0 mph24.1 kmh 29.72 in1006.4 mb 0.00 in0.0 mm 0.00 in0.0 mm 0.12 in3.0 mm
12:42 PM 66.7°F19.3°C 45.3°F7.4°C 46% 12.0 mph NW19.3 kmh NW 15.0 mph24.1 kmh 29.72 in1006.4 mb 0.00 in0.0 mm 0.00 in0.0 mm 0.12 in3.0 mm
12:43 PM 66.7°F19.3°C 44.1°F6.7°C 44% 12.0 mph W19.3 kmh W 17.0 mph27.4 kmh 29.72 in1006.4 mb 0.00 in0.0 mm 0.00 in0.0 mm 0.12 in3.0 mm
12:46 PM 66.7°F19.3°C 43.5°F6.4°C 43% 11.0 mph NW17.7 kmh NW 17.0 mph27.4 kmh 29.72 in1006.4 mb 0.00 in0.0 mm 0.00 in0.0 mm 0.12 in3.0 mm
12:47 PM 66.6°F19.2°C 42.8°F6.0°C 42% 14.0 mph NW22.5 kmh NW 17.0 mph27.4 kmh 29.72 in1006.4 mb 0.00 in0.0 mm 0.00 in0.0 mm 0.12 in3.0 mm
12:50 PM 66.8°F19.3°C 43.0°F6.1°C 42% 9.0 mph NW14.5 kmh NW 17.0 mph27.4 kmh 29.72 in1006.4 mb 0.00 in0.0 mm 0.00 in0.0 mm 0.12 in3.0 mm
12:51 PM 67.0°F19.4°C 42.6°F5.9°C 41% 14.0 mph NW22.5 kmh NW 17.0 mph27.4 kmh 29.72 in1006.4 mb 0.00 in0.0 mm 0.00 in0.0 mm 0.12 in3.0 mm
12:53 PM 66.8°F19.3°C 41.7°F5.4°C 40% 9.0 mph NW14.5 kmh NW 19.0 mph30.6 kmh 29.72 in1006.4 mb 0.00 in0.0 mm 0.00 in0.0 mm 0.12 in3.0 mm
12:56 PM 66.7°F19.3°C 41.6°F5.3°C 40% 16.0 mph NW25.7 kmh NW 19.0 mph30.6 kmh 29.71 in1006.1 mb 0.00 in0.0 mm 0.00 in0.0 mm 0.12 in3.0 mm
12:58 PM 66.7°F19.3°C 41.6°F5.3°C 40% 17.0 mph NW27.4 kmh NW 19.0 mph30.6 kmh 29.71 in1006.1 mb 0.00 in0.0 mm 0.00 in0.0 mm 0.12 in3.0 mm
12:59 PM 66.6°F19.2°C 41.6°F5.3°C 40% 9.0 mph NW14.5 kmh NW 19.0 mph30.6 kmh 29.71 in1006.1 mb 0.00 in0.0 mm 0.00 in0.0 mm 0.12 in3.0 mm
01:01 PM 66.7°F19.3°C 42.3°F5.7°C 41% 12.0 mph WNW19.3 kmh WNW 19.0 mph30.6 kmh 29.71 in1006.1 mb 0.00 in0.0 mm 0.00 in0.0 mm 0.12 in3.0 mm
01:04 PM 66.8°F19.3°C 42.4°F5.8°C 41% 9.0 mph NW14.5 kmh NW 12.0 mph19.3 kmh 29.71 in1006.1 mb 0.00 in0.0 mm 0.00 in0.0 mm 0.12 in3.0 mm
01:06 PM 67.1°F19.5°C 43.3°F6.3°C 42% 6.0 mph W9.7 kmh W 16.0 mph25.7 kmh 29.71 in1006.1 mb 0.00 in0.0 mm 0.00 in0.0 mm 0.12 in3.0 mm
01:08 PM 67.1°F19.5°C 43.3°F6.3°C 42% 9.0 mph NW14.5 kmh NW 16.0 mph25.7 kmh 29.71 in1006.1 mb 0.00 in0.0 mm 0.00 in0.0 mm 0.12 in3.0 mm
01:10 PM 67.2°F19.6°C 43.4°F6.3°C 42% 9.0 mph NW14.5 kmh NW 16.0 mph25.7 kmh 29.71 in1006.1 mb 0.00 in0.0 mm 0.00 in0.0 mm 0.12 in3.0 mm
01:12 PM 67.2°F19.6°C 42.7°F5.9°C 41% 12.0 mph NW19.3 kmh NW 16.0 mph25.7 kmh 29.71 in1006.1 mb 0.00 in0.0 mm 0.00 in0.0 mm 0.12 in3.0 mm
01:14 PM 67.3°F19.6°C 42.2°F5.7°C 40% 7.0 mph WNW11.3 kmh WNW 16.0 mph25.7 kmh 29.70 in1005.8 mb 0.00 in0.0 mm 0.00 in0.0 mm 0.12 in3.0 mm
01:16 PM 67.4°F19.7°C 41.6°F5.3°C 39% 9.0 mph W14.5 kmh W 16.0 mph25.7 kmh 29.70 in1005.8 mb 0.00 in0.0 mm 0.00 in0.0 mm 0.12 in3.0 mm
01:18 PM 67.3°F19.6°C 40.9°F4.9°C 38% 7.0 mph W11.3 kmh W 16.0 mph25.7 kmh 29.70 in1005.8 mb 0.00 in0.0 mm 0.00 in0.0 mm 0.12 in3.0 mm
01:20 PM 67.4°F19.7°C 40.9°F4.9°C 38% 13.0 mph NW20.9 kmh NW 16.0 mph25.7 kmh 29.70 in1005.8 mb 0.00 in0.0 mm 0.00 in0.0 mm 0.12 in3.0 mm
01:22 PM 67.3°F19.6°C 40.2°F4.6°C 37% 12.0 mph N19.3 kmh N 16.0 mph25.7 kmh 29.70 in1005.8 mb 0.00 in0.0 mm 0.00 in0.0 mm 0.12 in3.0 mm
01:24 PM 67.4°F19.7°C 40.9°F4.9°C 38% 7.0 mph WNW11.3 kmh WNW 16.0 mph25.7 kmh 29.70 in1005.8 mb 0.00 in0.0 mm 0.00 in0.0 mm 0.12 in3.0 mm
01:26 PM 67.4°F19.7°C 40.3°F4.6°C 37% 9.0 mph WNW14.5 kmh WNW 16.0 mph25.7 kmh 29.70 in1005.8 mb 0.00 in0.0 mm 0.00 in0.0 mm 0.12 in3.0 mm
01:28 PM 67.5°F19.7°C 41.0°F5.0°C 38% 8.0 mph WNW12.9 kmh WNW 16.0 mph25.7 kmh 29.70 in1005.8 mb 0.00 in0.0 mm 0.00 in0.0 mm 0.12 in3.0 mm
01:30 PM 67.5°F19.7°C 41.0°F5.0°C 38% 7.0 mph W11.3 kmh W 16.0 mph25.7 kmh 29.70 in1005.8 mb 0.00 in0.0 mm 0.00 in0.0 mm 0.12 in3.0 mm
01:32 PM 67.5°F19.7°C 40.3°F4.6°C 37% 8.0 mph W12.9 kmh W 16.0 mph25.7 kmh 29.70 in1005.8 mb 0.00 in0.0 mm 0.00 in0.0 mm 0.12 in3.0 mm
01:34 PM 67.4°F19.7°C 41.6°F5.3°C 39% 4.0 mph WNW6.4 kmh WNW 12.0 mph19.3 kmh 29.69 in1005.4 mb 0.00 in0.0 mm 0.00 in0.0 mm 0.12 in3.0 mm
01:36 PM 67.5°F19.7°C 42.4°F5.8°C 40% 5.0 mph WNW8.0 kmh WNW 15.0 mph24.1 kmh 29.70 in1005.8 mb 0.00 in0.0 mm 0.00 in0.0 mm 0.12 in3.0 mm
01:38 PM 67.5°F19.7°C 42.4°F5.8°C 40% 9.0 mph NW14.5 kmh NW 15.0 mph24.1 kmh 29.69 in1005.4 mb 0.00 in0.0 mm 0.00 in0.0 mm 0.12 in3.0 mm
01:40 PM 67.4°F19.7°C 42.3°F5.7°C 40% 5.0 mph NW8.0 kmh NW 15.0 mph24.1 kmh 29.69 in1005.4 mb 0.00 in0.0 mm 0.00 in0.0 mm 0.12 in3.0 mm
01:42 PM 67.4°F19.7°C 42.3°F5.7°C 40% 8.0 mph WNW12.9 kmh WNW 15.0 mph24.1 kmh 29.69 in1005.4 mb 0.00 in0.0 mm 0.00 in0.0 mm 0.12 in3.0 mm
01:44 PM 67.5°F19.7°C 42.4°F5.8°C 40% 12.0 mph WNW19.3 kmh WNW 15.0 mph24.1 kmh 29.69 in1005.4 mb 0.00 in0.0 mm 0.00 in0.0 mm 0.12 in3.0 mm
01:46 PM 67.6°F19.8°C 42.4°F5.8°C 40% 4.0 mph WNW6.4 kmh WNW 15.0 mph24.1 kmh 29.69 in1005.4 mb 0.00 in0.0 mm 0.00 in0.0 mm 0.12 in3.0 mm
01:48 PM 67.6°F19.8°C 41.8°F5.4°C 39% 10.0 mph W16.1 kmh W 15.0 mph24.1 kmh 29.69 in1005.4 mb 0.00 in0.0 mm 0.00 in0.0 mm 0.12 in3.0 mm
01:50 PM 67.7°F19.8°C 41.9°F5.5°C 39% 12.0 mph W19.3 kmh W 15.0 mph24.1 kmh 29.69 in1005.4 mb 0.00 in0.0 mm 0.00 in0.0 mm 0.12 in3.0 mm
01:52 PM 67.8°F19.9°C 42.6°F5.9°C 40% 9.0 mph W14.5 kmh W 15.0 mph24.1 kmh 29.69 in1005.4 mb 0.00 in0.0 mm 0.00 in0.0 mm 0.12 in3.0 mm
01:54 PM 68.0°F20.0°C 42.8°F6.0°C 40% 5.0 mph NW8.0 kmh NW 15.0 mph24.1 kmh 29.69 in1005.4 mb 0.00 in0.0 mm 0.00 in0.0 mm 0.12 in3.0 mm
01:56 PM 68.1°F20.1°C 42.2°F5.7°C 39% 10.0 mph WNW16.1 kmh WNW 15.0 mph24.1 kmh 29.69 in1005.4 mb 0.00 in0.0 mm 0.00 in0.0 mm 0.12 in3.0 mm
01:58 PM 68.1°F20.1°C 41.6°F5.3°C 38% 9.0 mph NW14.5 kmh NW 15.0 mph24.1 kmh 29.69 in1005.4 mb 0.00 in0.0 mm 0.00 in0.0 mm 0.12 in3.0 mm
02:00 PM 68.2°F20.1°C 42.3°F5.7°C 39% 13.0 mph WNW20.9 kmh WNW 15.0 mph24.1 kmh 29.69 in1005.4 mb 0.00 in0.0 mm 0.00 in0.0 mm 0.12 in3.0 mm
02:02 PM 68.2°F20.1°C 41.7°F5.4°C 38% 12.0 mph WNW19.3 kmh WNW 17.0 mph27.4 kmh 29.69 in1005.4 mb 0.00 in0.0 mm 0.00 in0.0 mm 0.12 in3.0 mm
02:04 PM 68.0°F20.0°C 41.5°F5.3°C 38% 12.0 mph WNW19.3 kmh WNW 15.0 mph24.1 kmh 29.69 in1005.4 mb 0.00 in0.0 mm 0.00 in0.0 mm 0.12 in3.0 mm
02:06 PM 68.0°F20.0°C 41.5°F5.3°C 38% 13.0 mph WSW20.9 kmh WSW 16.0 mph25.7 kmh 29.69 in1005.4 mb 0.00 in0.0 mm 0.00 in0.0 mm 0.12 in3.0 mm
02:08 PM 68.2°F20.1°C 41.7°F5.4°C 38% 13.0 mph WNW20.9 kmh WNW 16.0 mph25.7 kmh 29.69 in1005.4 mb 0.00 in0.0 mm 0.00 in0.0 mm 0.12 in3.0 mm
02:10 PM 68.4°F20.2°C 42.5°F5.8°C 39% 8.0 mph WNW12.9 kmh WNW 16.0 mph25.7 kmh 29.69 in1005.4 mb 0.00 in0.0 mm 0.00 in0.0 mm 0.12 in3.0 mm
02:12 PM 68.4°F20.2°C 42.5°F5.8°C 39% 10.0 mph WNW16.1 kmh WNW 16.0 mph25.7 kmh 29.69 in1005.4 mb 0.00 in0.0 mm 0.00 in0.0 mm 0.12 in3.0 mm
02:14 PM 68.5°F20.3°C 42.6°F5.9°C 39% 16.0 mph WSW25.7 kmh WSW 16.0 mph25.7 kmh 29.69 in1005.4 mb 0.00 in0.0 mm 0.00 in0.0 mm 0.12 in3.0 mm
02:16 PM 68.5°F20.3°C 41.9°F5.5°C 38% 7.0 mph NW11.3 kmh NW 16.0 mph25.7 kmh 29.69 in1005.4 mb 0.00 in0.0 mm 0.00 in0.0 mm 0.12 in3.0 mm
02:18 PM 68.4°F20.2°C 41.1°F5.1°C 37% 9.0 mph W14.5 kmh W 16.0 mph25.7 kmh 29.69 in1005.4 mb 0.00 in0.0 mm 0.00 in0.0 mm 0.12 in3.0 mm
02:20 PM 68.3°F20.2°C 42.4°F5.8°C 39% 8.0 mph W12.9 kmh W 16.0 mph25.7 kmh 29.69 in1005.4 mb 0.00 in0.0 mm 0.00 in0.0 mm 0.12 in3.0 mm
02:22 PM 68.4°F20.2°C 41.8°F5.4°C 38% 8.0 mph WNW12.9 kmh WNW 16.0 mph25.7 kmh 29.69 in1005.4 mb 0.00 in0.0 mm 0.00 in0.0 mm 0.12 in3.0 mm
02:24 PM 68.5°F20.3°C 42.6°F5.9°C 39% 8.0 mph NW12.9 kmh NW 16.0 mph25.7 kmh 29.69 in1005.4 mb 0.00 in0.0 mm 0.00 in0.0 mm 0.12 in3.0 mm
02:26 PM 68.7°F20.4°C 42.8°F6.0°C 39% 10.0 mph NW16.1 kmh NW 16.0 mph25.7 kmh 29.69 in1005.4 mb 0.00 in0.0 mm 0.00 in0.0 mm 0.12 in3.0 mm
02:28 PM 68.7°F20.4°C 42.1°F5.6°C 38% 9.0 mph NW14.5 kmh NW 16.0 mph25.7 kmh 29.69 in1005.4 mb 0.00 in0.0 mm 0.00 in0.0 mm 0.12 in3.0 mm
02:30 PM 68.6°F20.3°C 42.0°F5.6°C 38% 11.0 mph NW17.7 kmh NW 16.0 mph25.7 kmh 29.69 in1005.4 mb 0.00 in0.0 mm 0.00 in0.0 mm 0.12 in3.0 mm
02:32 PM 68.6°F20.3°C 41.3°F5.2°C 37% 16.0 mph WNW25.7 kmh WNW 19.0 mph30.6 kmh 29.69 in1005.4 mb 0.00 in0.0 mm 0.00 in0.0 mm 0.12 in3.0 mm
02:34 PM 68.7°F20.4°C 42.1°F5.6°C 38% 7.0 mph W11.3 kmh W 13.0 mph20.9 kmh 29.69 in1005.4 mb 0.00 in0.0 mm 0.00 in0.0 mm 0.12 in3.0 mm
02:36 PM 68.8°F20.4°C 41.5°F5.3°C 37% 11.0 mph WSW17.7 kmh WSW 15.0 mph24.1 kmh 29.69 in1005.4 mb 0.00 in0.0 mm 0.00 in0.0 mm 0.12 in3.0 mm
02:38 PM 68.8°F20.4°C 40.8°F4.9°C 36% 12.0 mph W19.3 kmh W 19.0 mph30.6 kmh 29.69 in1005.4 mb 0.00 in0.0 mm 0.00 in0.0 mm 0.12 in3.0 mm
02:40 PM 68.8°F20.4°C 41.5°F5.3°C 37% 13.0 mph WNW20.9 kmh WNW 19.0 mph30.6 kmh 29.69 in1005.4 mb 0.00 in0.0 mm 0.00 in0.0 mm 0.12 in3.0 mm
02:42 PM 68.8°F20.4°C 40.8°F4.9°C 36% 13.0 mph W20.9 kmh W 19.0 mph30.6 kmh 29.69 in1005.4 mb 0.00 in0.0 mm 0.00 in0.0 mm 0.12 in3.0 mm
02:44 PM 68.8°F20.4°C 40.8°F4.9°C 36% 11.0 mph W17.7 kmh W 19.0 mph30.6 kmh 29.69 in1005.4 mb 0.00 in0.0 mm 0.00 in0.0 mm 0.12 in3.0 mm
02:46 PM 68.9°F20.5°C 40.9°F4.9°C 36% 9.0 mph WNW14.5 kmh WNW 19.0 mph30.6 kmh 29.69 in1005.4 mb 0.00 in0.0 mm 0.00 in0.0 mm 0.12 in3.0 mm
02:48 PM 68.9°F20.5°C 40.9°F4.9°C 36% 4.0 mph NW6.4 kmh NW 19.0 mph30.6 kmh 29.69 in1005.4 mb 0.00 in0.0 mm 0.00 in0.0 mm 0.12 in3.0 mm
02:50 PM 69.0°F20.6°C 41.7°F5.4°C 37% 9.0 mph NW14.5 kmh NW 19.0 mph30.6 kmh 29.69 in1005.4 mb 0.00 in0.0 mm 0.00 in0.0 mm 0.12 in3.0 mm
02:52 PM 68.9°F20.5°C 40.9°F4.9°C 36% 9.0 mph WNW14.5 kmh WNW 19.0 mph30.6 kmh 29.69 in1005.4 mb 0.00 in0.0 mm 0.00 in0.0 mm 0.12 in3.0 mm
02:54 PM 68.9°F20.5°C 40.2°F4.6°C 35% 11.0 mph WNW17.7 kmh WNW 19.0 mph30.6 kmh 29.69 in1005.4 mb 0.00 in0.0 mm 0.00 in0.0 mm 0.12 in3.0 mm
02:56 PM 68.8°F20.4°C 39.3°F4.1°C 34% 12.0 mph NW19.3 kmh NW 19.0 mph30.6 kmh 29.69 in1005.4 mb 0.00 in0.0 mm 0.00 in0.0 mm 0.12 in3.0 mm
02:58 PM 68.8°F20.4°C 38.6°F3.7°C 33% 15.0 mph NW24.1 kmh NW 19.0 mph30.6 kmh 29.69 in1005.4 mb 0.00 in0.0 mm 0.00 in0.0 mm 0.12 in3.0 mm
03:00 PM 68.8°F20.4°C 39.3°F4.1°C 34% 17.0 mph WNW27.4 kmh WNW 19.0 mph30.6 kmh 29.69 in1005.4 mb 0.00 in0.0 mm 0.00 in0.0 mm 0.12 in3.0 mm
03:02 PM 68.7°F20.4°C 37.7°F3.2°C 32% 6.0 mph NW9.7 kmh NW 19.0 mph30.6 kmh 29.70 in1005.8 mb 0.00 in0.0 mm 0.00 in0.0 mm 0.12 in3.0 mm
03:04 PM 68.7°F20.4°C 38.5°F3.6°C 33% 16.0 mph NW25.7 kmh NW 16.0 mph25.7 kmh 29.70 in1005.8 mb 0.00 in0.0 mm 0.00 in0.0 mm 0.12 in3.0 mm
03:06 PM 68.7°F20.4°C 37.7°F3.2°C 32% 12.0 mph WNW19.3 kmh WNW 17.0 mph27.4 kmh 29.69 in1005.4 mb 0.00 in0.0 mm 0.00 in0.0 mm 0.12 in3.0 mm
03:08 PM 68.8°F20.4°C 37.8°F3.2°C 32% 13.0 mph W20.9 kmh W 18.0 mph29.0 kmh 29.70 in1005.8 mb 0.00 in0.0 mm 0.00 in0.0 mm 0.12 in3.0 mm
03:10 PM 68.7°F20.4°C 37.7°F3.2°C 32% 16.0 mph WNW25.7 kmh WNW 18.0 mph29.0 kmh 29.69 in1005.4 mb 0.00 in0.0 mm 0.00 in0.0 mm 0.12 in3.0 mm
03:12 PM 68.7°F20.4°C 37.7°F3.2°C 32% 9.0 mph WNW14.5 kmh WNW 18.0 mph29.0 kmh 29.70 in1005.8 mb 0.00 in0.0 mm 0.00 in0.0 mm 0.12 in3.0 mm
03:14 PM 68.8°F20.4°C 37.8°F3.2°C 32% 10.0 mph NW16.1 kmh NW 18.0 mph29.0 kmh 29.70 in1005.8 mb 0.00 in0.0 mm 0.00 in0.0 mm 0.12 in3.0 mm
03:16 PM 68.7°F20.4°C 37.7°F3.2°C 32% 12.0 mph WNW19.3 kmh WNW 24.0 mph38.6 kmh 29.70 in1005.8 mb 0.00 in0.0 mm 0.00 in0.0 mm 0.12 in3.0 mm
03:18 PM 68.6°F20.3°C 37.6°F3.1°C 32% 15.0 mph W24.1 kmh W 24.0 mph38.6 kmh 29.70 in1005.8 mb 0.00 in0.0 mm 0.00 in0.0 mm 0.12 in3.0 mm
03:20 PM 68.5°F20.3°C 37.5°F3.1°C 32% 9.0 mph WNW14.5 kmh WNW 24.0 mph38.6 kmh 29.70 in1005.8 mb 0.00 in0.0 mm 0.00 in0.0 mm 0.12 in3.0 mm
03:22 PM 68.5°F20.3°C 37.5°F3.1°C 32% 16.0 mph W25.7 kmh W 24.0 mph38.6 kmh 29.70 in1005.8 mb 0.00 in0.0 mm 0.00 in0.0 mm 0.12 in3.0 mm
03:24 PM 68.5°F20.3°C 37.5°F3.1°C 32% 12.0 mph W19.3 kmh W 24.0 mph38.6 kmh 29.70 in1005.8 mb 0.00 in0.0 mm 0.00 in0.0 mm 0.12 in3.0 mm
03:26 PM 68.6°F20.3°C 38.4°F3.6°C 33% 14.0 mph W22.5 kmh W 24.0 mph38.6 kmh 29.70 in1005.8 mb 0.00 in0.0 mm 0.00 in0.0 mm 0.12 in3.0 mm
03:28 PM 68.6°F20.3°C 37.6°F3.1°C 32% 17.0 mph NW27.4 kmh NW 24.0 mph38.6 kmh 29.70 in1005.8 mb 0.00 in0.0 mm 0.00 in0.0 mm 0.12 in3.0 mm
03:30 PM 68.6°F20.3°C 37.6°F3.1°C 32% 10.0 mph WNW16.1 kmh WNW 24.0 mph38.6 kmh 29.70 in1005.8 mb 0.00 in0.0 mm 0.00 in0.0 mm 0.12 in3.0 mm
03:32 PM 68.5°F20.3°C 38.3°F3.5°C 33% 21.0 mph WNW33.8 kmh WNW 24.0 mph38.6 kmh 29.70 in1005.8 mb 0.00 in0.0 mm 0.00 in0.0 mm 0.12 in3.0 mm
03:34 PM 68.4°F20.2°C 37.4°F3.0°C 32% 12.0 mph WNW19.3 kmh WNW 24.0 mph38.6 kmh 29.70 in1005.8 mb 0.00 in0.0 mm 0.00 in0.0 mm 0.12 in3.0 mm
03:36 PM 68.3°F20.2°C 37.3°F2.9°C 32% 10.0 mph WNW16.1 kmh WNW 24.0 mph38.6 kmh 29.70 in1005.8 mb 0.00 in0.0 mm 0.00 in0.0 mm 0.12 in3.0 mm
03:38 PM 68.4°F20.2°C 38.2°F3.4°C 33% 11.0 mph W17.7 kmh W 24.0 mph38.6 kmh 29.70 in1005.8 mb 0.00 in0.0 mm 0.00 in0.0 mm 0.12 in3.0 mm
03:40 PM 68.5°F20.3°C 38.3°F3.5°C 33% 18.0 mph W29.0 kmh W 24.0 mph38.6 kmh 29.70 in1005.8 mb 0.00 in0.0 mm 0.00 in0.0 mm 0.12 in3.0 mm
03:42 PM 68.4°F20.2°C 38.2°F3.4°C 33% 13.0 mph W20.9 kmh W 24.0 mph38.6 kmh 29.70 in1005.8 mb 0.00 in0.0 mm 0.00 in0.0 mm 0.12 in3.0 mm
03:44 PM 68.3°F20.2°C 38.1°F3.4°C 33% 13.0 mph WSW20.9 kmh WSW 24.0 mph38.6 kmh 29.70 in1005.8 mb 0.00 in0.0 mm 0.00 in0.0 mm 0.12 in3.0 mm
03:46 PM 68.2°F20.1°C 37.2°F2.9°C 32% 12.0 mph W19.3 kmh W 24.0 mph38.6 kmh 29.70 in1005.8 mb 0.00 in0.0 mm 0.00 in0.0 mm 0.12 in3.0 mm
03:48 PM 68.1°F20.1°C 37.9°F3.3°C 33% 26.0 mph W41.8 kmh W 26.0 mph41.8 kmh 29.70 in1005.8 mb 0.00 in0.0 mm 0.00 in0.0 mm 0.12 in3.0 mm
03:50 PM 68.0°F20.0°C 37.9°F3.3°C 33% 11.0 mph W17.7 kmh W 26.0 mph41.8 kmh 29.70 in1005.8 mb 0.00 in0.0 mm 0.00 in0.0 mm 0.12 in3.0 mm
03:52 PM 68.0°F20.0°C 37.9°F3.3°C 33% 8.0 mph W12.9 kmh W 26.0 mph41.8 kmh 29.70 in1005.8 mb 0.00 in0.0 mm 0.00 in0.0 mm 0.12 in3.0 mm
03:54 PM 68.1°F20.1°C 37.9°F3.3°C 33% 12.0 mph W19.3 kmh W 26.0 mph41.8 kmh 29.70 in1005.8 mb 0.00 in0.0 mm 0.00 in0.0 mm 0.12 in3.0 mm
03:56 PM 68.1°F20.1°C 37.9°F3.3°C 33% 15.0 mph WSW24.1 kmh WSW 26.0 mph41.8 kmh 29.70 in1005.8 mb 0.00 in0.0 mm 0.00 in0.0 mm 0.12 in3.0 mm
03:58 PM 68.0°F20.0°C 37.9°F3.3°C 33% 20.0 mph W32.2 kmh W 26.0 mph41.8 kmh 29.70 in1005.8 mb 0.00 in0.0 mm 0.00 in0.0 mm 0.12 in3.0 mm
04:00 PM 68.0°F20.0°C 38.6°F3.7°C 34% 16.0 mph W25.7 kmh W 26.0 mph41.8 kmh 29.70 in1005.8 mb 0.00 in0.0 mm 0.00 in0.0 mm 0.12 in3.0 mm
04:02 PM 67.8°F19.9°C 37.7°F3.2°C 33% 16.0 mph W25.7 kmh W 26.0 mph41.8 kmh 29.70 in1005.8 mb 0.00 in0.0 mm 0.00 in0.0 mm 0.12 in3.0 mm
04:04 PM 67.8°F19.9°C 37.7°F3.2°C 33% 11.0 mph WNW17.7 kmh WNW 22.0 mph35.4 kmh 29.70 in1005.8 mb 0.00 in0.0 mm 0.00 in0.0 mm 0.12 in3.0 mm
04:05 PM 67.7°F19.8°C 37.6°F3.1°C 33% 16.0 mph W25.7 kmh W 22.0 mph35.4 kmh 29.70 in1005.8 mb 0.00 in0.0 mm 0.00 in0.0 mm 0.12 in3.0 mm
04:08 PM 67.5°F19.7°C 38.2°F3.4°C 34% 11.0 mph W17.7 kmh W 22.0 mph35.4 kmh 29.70 in1005.8 mb 0.00 in0.0 mm 0.00 in0.0 mm 0.12 in3.0 mm
04:09 PM 67.5°F19.7°C 38.2°F3.4°C 34% 14.0 mph W22.5 kmh W 22.0 mph35.4 kmh 29.70 in1005.8 mb 0.00 in0.0 mm 0.00 in0.0 mm 0.12 in3.0 mm
04:12 PM 67.5°F19.7°C 38.2°F3.4°C 34% 9.0 mph W14.5 kmh W 22.0 mph35.4 kmh 29.70 in1005.8 mb 0.00 in0.0 mm 0.00 in0.0 mm 0.12 in3.0 mm
04:13 PM 67.5°F19.7°C 38.9°F3.8°C 35% 7.0 mph W11.3 kmh W 22.0 mph35.4 kmh 29.70 in1005.8 mb 0.00 in0.0 mm 0.00 in0.0 mm 0.12 in3.0 mm
04:15 PM 67.5°F19.7°C 38.9°F3.8°C 35% 8.0 mph W12.9 kmh W 22.0 mph35.4 kmh 29.70 in1005.8 mb 0.00 in0.0 mm 0.00 in0.0 mm 0.12 in3.0 mm
04:18 PM 67.6°F19.8°C 39.0°F3.9°C 35% 17.0 mph W27.4 kmh W 24.0 mph38.6 kmh 29.70 in1005.8 mb 0.00 in0.0 mm 0.00 in0.0 mm 0.12 in3.0 mm
04:20 PM 67.5°F19.7°C 38.2°F3.4°C 34% 10.0 mph W16.1 kmh W 24.0 mph38.6 kmh 29.70 in1005.8 mb 0.00 in0.0 mm 0.00 in0.0 mm 0.12 in3.0 mm
04:22 PM 67.5°F19.7°C 38.2°F3.4°C 34% 13.0 mph W20.9 kmh W 24.0 mph38.6 kmh 29.70 in1005.8 mb 0.00 in0.0 mm 0.00 in0.0 mm 0.12 in3.0 mm
04:24 PM 67.4°F19.7°C 38.1°F3.4°C 34% 21.0 mph WNW33.8 kmh WNW 24.0 mph38.6 kmh 29.70 in1005.8 mb 0.00 in0.0 mm 0.00 in0.0 mm 0.12 in3.0 mm
04:26 PM 67.3°F19.6°C 38.0°F3.3°C 34% 18.0 mph WNW29.0 kmh WNW 24.0 mph38.6 kmh 29.70 in1005.8 mb 0.00 in0.0 mm 0.00 in0.0 mm 0.12 in3.0 mm
04:28 PM 67.2°F19.6°C 37.9°F3.3°C 34% 15.0 mph WNW24.1 kmh WNW 24.0 mph38.6 kmh 29.70 in1005.8 mb 0.00 in0.0 mm 0.00 in0.0 mm 0.12 in3.0 mm
04:30 PM 67.1°F19.5°C 37.8°F3.2°C 34% 10.0 mph W16.1 kmh W 24.0 mph38.6 kmh 29.70 in1005.8 mb 0.00 in0.0 mm 0.00 in0.0 mm 0.12 in3.0 mm
04:32 PM 67.1°F19.5°C 37.8°F3.2°C 34% 10.0 mph WSW16.1 kmh WSW 24.0 mph38.6 kmh 29.71 in1006.1 mb 0.00 in0.0 mm 0.00 in0.0 mm 0.12 in3.0 mm
04:34 PM 67.1°F19.5°C 37.8°F3.2°C 34% 17.0 mph W27.4 kmh W 17.0 mph27.4 kmh 29.71 in1006.1 mb 0.00 in0.0 mm 0.00 in0.0 mm 0.12 in3.0 mm
04:36 PM 67.0°F19.4°C 37.7°F3.2°C 34% 9.0 mph NW14.5 kmh NW 17.0 mph27.4 kmh 29.70 in1005.8 mb 0.00 in0.0 mm 0.00 in0.0 mm 0.12 in3.0 mm
04:38 PM 66.9°F19.4°C 37.7°F3.2°C 34% 10.0 mph WNW16.1 kmh WNW 17.0 mph27.4 kmh 29.70 in1005.8 mb 0.00 in0.0 mm 0.00 in0.0 mm 0.12 in3.0 mm
04:40 PM 66.9°F19.4°C 37.7°F3.2°C 34% 14.0 mph W22.5 kmh W 17.0 mph27.4 kmh 29.70 in1005.8 mb 0.00 in0.0 mm 0.00 in0.0 mm 0.12 in3.0 mm
04:42 PM 66.8°F19.3°C 37.6°F3.1°C 34% 11.0 mph NW17.7 kmh NW 17.0 mph27.4 kmh 29.70 in1005.8 mb 0.00 in0.0 mm 0.00 in0.0 mm 0.12 in3.0 mm
04:44 PM 66.7°F19.3°C 36.7°F2.6°C 33% 11.0 mph NW17.7 kmh NW 18.0 mph29.0 kmh 29.71 in1006.1 mb 0.00 in0.0 mm 0.00 in0.0 mm 0.12 in3.0 mm
04:46 PM 66.6°F19.2°C 37.4°F3.0°C 34% 6.0 mph W9.7 kmh W 18.0 mph29.0 kmh 29.71 in1006.1 mb 0.00 in0.0 mm 0.00 in0.0 mm 0.12 in3.0 mm
04:48 PM 66.5°F19.2°C 37.3°F2.9°C 34% 14.0 mph WNW22.5 kmh WNW 18.0 mph29.0 kmh 29.71 in1006.1 mb 0.00 in0.0 mm 0.00 in0.0 mm 0.12 in3.0 mm
04:50 PM 66.4°F19.1°C 37.2°F2.9°C 34% 16.0 mph NW25.7 kmh NW 21.0 mph33.8 kmh 29.71 in1006.1 mb 0.00 in0.0 mm 0.00 in0.0 mm 0.12 in3.0 mm
04:52 PM 66.4°F19.1°C 37.2°F2.9°C 34% 11.0 mph W17.7 kmh W 25.0 mph40.2 kmh 29.71 in1006.1 mb 0.00 in0.0 mm 0.00 in0.0 mm 0.12 in3.0 mm
04:54 PM 66.3°F19.1°C 37.1°F2.8°C 34% 9.0 mph W14.5 kmh W 25.0 mph40.2 kmh 29.71 in1006.1 mb 0.00 in0.0 mm 0.00 in0.0 mm 0.12 in3.0 mm
04:56 PM 66.1°F18.9°C 36.9°F2.7°C 34% 16.0 mph W25.7 kmh W 25.0 mph40.2 kmh 29.71 in1006.1 mb 0.00 in0.0 mm 0.00 in0.0 mm 0.12 in3.0 mm
04:58 PM 66.0°F18.9°C 36.9°F2.7°C 34% 5.0 mph WNW8.0 kmh WNW 25.0 mph40.2 kmh 29.72 in1006.4 mb 0.00 in0.0 mm 0.00 in0.0 mm 0.12 in3.0 mm
05:00 PM 66.0°F18.9°C 36.9°F2.7°C 34% 14.0 mph W22.5 kmh W 25.0 mph40.2 kmh 29.71 in1006.1 mb 0.00 in0.0 mm 0.00 in0.0 mm 0.12 in3.0 mm
05:02 PM 65.9°F18.8°C 37.5°F3.1°C 35% 13.0 mph SW20.9 kmh SW 25.0 mph40.2 kmh 29.71 in1006.1 mb 0.00 in0.0 mm 0.00 in0.0 mm 0.12 in3.0 mm
05:04 PM 65.8°F18.8°C 37.4°F3.0°C 35% 5.0 mph WNW8.0 kmh WNW 13.0 mph20.9 kmh 29.72 in1006.4 mb 0.00 in0.0 mm 0.00 in0.0 mm 0.12 in3.0 mm
05:06 PM 65.7°F18.7°C 37.3°F2.9°C 35% 10.0 mph W16.1 kmh W 13.0 mph20.9 kmh 29.72 in1006.4 mb 0.00 in0.0 mm 0.00 in0.0 mm 0.12 in3.0 mm
05:08 PM 65.7°F18.7°C 37.3°F2.9°C 35% 9.0 mph WNW14.5 kmh WNW 13.0 mph20.9 kmh 29.72 in1006.4 mb 0.00 in0.0 mm 0.00 in0.0 mm 0.12 in3.0 mm
05:10 PM 65.5°F18.6°C 37.2°F2.9°C 35% 4.0 mph WNW6.4 kmh WNW 13.0 mph20.9 kmh 29.71 in1006.1 mb 0.00 in0.0 mm 0.00 in0.0 mm 0.12 in3.0 mm
05:12 PM 65.3°F18.5°C 37.7°F3.2°C 36% 7.0 mph W11.3 kmh W 13.0 mph20.9 kmh 29.71 in1006.1 mb 0.00 in0.0 mm 0.00 in0.0 mm 0.12 in3.0 mm
05:14 PM 65.2°F18.4°C 36.9°F2.7°C 35% 14.0 mph W22.5 kmh W 14.0 mph22.5 kmh 29.72 in1006.4 mb 0.00 in0.0 mm 0.00 in0.0 mm 0.12 in3.0 mm
05:16 PM 65.1°F18.4°C 36.8°F2.7°C 35% 7.0 mph WNW11.3 kmh WNW 17.0 mph27.4 kmh 29.72 in1006.4 mb 0.00 in0.0 mm 0.00 in0.0 mm 0.12 in3.0 mm
05:18 PM 65.1°F18.4°C 37.5°F3.1°C 36% 9.0 mph W14.5 kmh W 17.0 mph27.4 kmh 29.72 in1006.4 mb 0.00 in0.0 mm 0.00 in0.0 mm 0.12 in3.0 mm
05:20 PM 65.0°F18.3°C 37.4°F3.0°C 36% 6.0 mph W9.7 kmh W 17.0 mph27.4 kmh 29.72 in1006.4 mb 0.00 in0.0 mm 0.00 in0.0 mm 0.12 in3.0 mm
05:22 PM 64.9°F18.3°C 37.3°F2.9°C 36% 12.0 mph W19.3 kmh W 17.0 mph27.4 kmh 29.72 in1006.4 mb 0.00 in0.0 mm 0.00 in0.0 mm 0.12 in3.0 mm
05:24 PM 64.8°F18.2°C 37.2°F2.9°C 36% 11.0 mph WNW17.7 kmh WNW 17.0 mph27.4 kmh 29.72 in1006.4 mb 0.00 in0.0 mm 0.00 in0.0 mm 0.12 in3.0 mm
05:26 PM 64.8°F18.2°C 36.5°F2.5°C 35% 11.0 mph WSW17.7 kmh WSW 17.0 mph27.4 kmh 29.72 in1006.4 mb 0.00 in0.0 mm 0.00 in0.0 mm 0.12 in3.0 mm
05:28 PM 64.7°F18.2°C 37.2°F2.9°C 36% 15.0 mph WNW24.1 kmh WNW 17.0 mph27.4 kmh 29.72 in1006.4 mb 0.00 in0.0 mm 0.00 in0.0 mm 0.12 in3.0 mm
05:30 PM 64.7°F18.2°C 36.4°F2.4°C 35% 9.0 mph WNW14.5 kmh WNW 17.0 mph27.4 kmh 29.73 in1006.8 mb 0.00 in0.0 mm 0.00 in0.0 mm 0.12 in3.0 mm
05:32 PM 64.6°F18.1°C 36.4°F2.4°C 35% 10.0 mph WNW16.1 kmh WNW 17.0 mph27.4 kmh 29.72 in1006.4 mb 0.00 in0.0 mm 0.00 in0.0 mm 0.12 in3.0 mm
05:34 PM 64.5°F18.1°C 36.3°F2.4°C 35% 13.0 mph W20.9 kmh W 15.0 mph24.1 kmh 29.72 in1006.4 mb 0.00 in0.0 mm 0.00 in0.0 mm 0.12 in3.0 mm
05:36 PM 64.4°F18.0°C 36.2°F2.3°C 35% 11.0 mph W17.7 kmh W 16.0 mph25.7 kmh 29.72 in1006.4 mb 0.00 in0.0 mm 0.00 in0.0 mm 0.12 in3.0 mm
05:38 PM 64.4°F18.0°C 35.5°F1.9°C 34% 5.0 mph WNW8.0 kmh WNW 16.0 mph25.7 kmh 29.72 in1006.4 mb 0.00 in0.0 mm 0.00 in0.0 mm 0.12 in3.0 mm
05:40 PM 64.3°F17.9°C 35.4°F1.9°C 34% 9.0 mph W14.5 kmh W 16.0 mph25.7 kmh 29.72 in1006.4 mb 0.00 in0.0 mm 0.00 in0.0 mm 0.12 in3.0 mm
05:42 PM 64.2°F17.9°C 36.0°F2.2°C 35% 9.0 mph W14.5 kmh W 16.0 mph25.7 kmh 29.72 in1006.4 mb 0.00 in0.0 mm 0.00 in0.0 mm 0.12 in3.0 mm
05:44 PM 64.1°F17.8°C 35.9°F2.2°C 35% 11.0 mph W17.7 kmh W 16.0 mph25.7 kmh 29.73 in1006.8 mb 0.00 in0.0 mm 0.00 in0.0 mm 0.12 in3.0 mm
05:46 PM 64.0°F17.8°C 35.8°F2.1°C 35% 11.0 mph WNW17.7 kmh WNW 16.0 mph25.7 kmh 29.73 in1006.8 mb 0.00 in0.0 mm 0.00 in0.0 mm 0.12 in3.0 mm
05:48 PM 64.0°F17.8°C 35.8°F2.1°C 35% 9.0 mph W14.5 kmh W 16.0 mph25.7 kmh 29.73 in1006.8 mb 0.00 in0.0 mm 0.00 in0.0 mm 0.12 in3.0 mm
05:50 PM 63.9°F17.7°C 35.7°F2.1°C 35% 6.0 mph NW9.7 kmh NW 16.0 mph25.7 kmh 29.72 in1006.4 mb 0.00 in0.0 mm 0.00 in0.0 mm 0.12 in3.0 mm
05:52 PM 63.8°F17.7°C 35.7°F2.1°C 35% 10.0 mph NW16.1 kmh NW 16.0 mph25.7 kmh 29.73 in1006.8 mb 0.00 in0.0 mm 0.00 in0.0 mm 0.12 in3.0 mm
05:54 PM 63.7°F17.6°C 35.6°F2.0°C 35% 11.0 mph WNW17.7 kmh WNW 16.0 mph25.7 kmh 29.73 in1006.8 mb 0.00 in0.0 mm 0.00 in0.0 mm 0.12 in3.0 mm
05:56 PM 63.7°F17.6°C 35.6°F2.0°C 35% 9.0 mph WNW14.5 kmh WNW 16.0 mph25.7 kmh 29.73 in1006.8 mb 0.00 in0.0 mm 0.00 in0.0 mm 0.12 in3.0 mm
05:58 PM 63.6°F17.6°C 35.5°F1.9°C 35% 9.0 mph WNW14.5 kmh WNW 16.0 mph25.7 kmh 29.73 in1006.8 mb 0.00 in0.0 mm 0.00 in0.0 mm 0.12 in3.0 mm
06:00 PM 63.5°F17.5°C 35.4°F1.9°C 35% 9.0 mph W14.5 kmh W 16.0 mph25.7 kmh 29.73 in1006.8 mb 0.00 in0.0 mm 0.00 in0.0 mm 0.12 in3.0 mm
06:02 PM 63.4°F17.4°C 34.6°F1.4°C 34% 13.0 mph W20.9 kmh W 16.0 mph25.7 kmh 29.73 in1006.8 mb 0.00 in0.0 mm 0.00 in0.0 mm 0.12 in3.0 mm
06:04 PM 63.5°F17.5°C 34.7°F1.5°C 34% 8.0 mph W12.9 kmh W 22.0 mph35.4 kmh 29.73 in1006.8 mb 0.00 in0.0 mm 0.00 in0.0 mm 0.12 in3.0 mm
06:06 PM 63.4°F17.4°C 34.6°F1.4°C 34% 13.0 mph W20.9 kmh W 22.0 mph35.4 kmh 29.73 in1006.8 mb 0.00 in0.0 mm 0.00 in0.0 mm 0.12 in3.0 mm
06:08 PM 63.3°F17.4°C 34.5°F1.4°C 34% 14.0 mph W22.5 kmh W 22.0 mph35.4 kmh 29.73 in1006.8 mb 0.00 in0.0 mm 0.00 in0.0 mm 0.12 in3.0 mm
06:10 PM 63.2°F17.3°C 34.4°F1.3°C 34% 12.0 mph NW19.3 kmh NW 22.0 mph35.4 kmh 29.73 in1006.8 mb 0.00 in0.0 mm 0.00 in0.0 mm 0.12 in3.0 mm
06:12 PM 63.1°F17.3°C 33.6°F0.9°C 33% 11.0 mph WNW17.7 kmh WNW 22.0 mph35.4 kmh 29.74 in1007.1 mb 0.00 in0.0 mm 0.00 in0.0 mm 0.12 in3.0 mm
06:14 PM 63.1°F17.3°C 33.6°F0.9°C 33% 4.0 mph WNW6.4 kmh WNW 22.0 mph35.4 kmh 29.74 in1007.1 mb 0.00 in0.0 mm 0.00 in0.0 mm 0.12 in3.0 mm
06:16 PM 63.1°F17.3°C 33.6°F0.9°C 33% 9.0 mph W14.5 kmh W 22.0 mph35.4 kmh 29.74 in1007.1 mb 0.00 in0.0 mm 0.00 in0.0 mm 0.12 in3.0 mm
06:18 PM 63.0°F17.2°C 32.7°F0.4°C 32% 11.0 mph WNW17.7 kmh WNW 22.0 mph35.4 kmh 29.74 in1007.1 mb 0.00 in0.0 mm 0.00 in0.0 mm 0.12 in3.0 mm
06:20 PM 63.0°F17.2°C 32.7°F0.4°C 32% 11.0 mph WNW17.7 kmh WNW 22.0 mph35.4 kmh 29.74 in1007.1 mb 0.00 in0.0 mm 0.00 in0.0 mm 0.12 in3.0 mm
06:22 PM 63.0°F17.2°C 32.7°F0.4°C 32% 12.0 mph WNW19.3 kmh WNW 22.0 mph35.4 kmh 29.74 in1007.1 mb 0.00 in0.0 mm 0.00 in0.0 mm 0.12 in3.0 mm
06:24 PM 62.9°F17.2°C 32.6°F0.3°C 32% 9.0 mph NW14.5 kmh NW 22.0 mph35.4 kmh 29.74 in1007.1 mb 0.00 in0.0 mm 0.00 in0.0 mm 0.12 in3.0 mm
06:26 PM 62.8°F17.1°C 32.5°F0.3°C 32% 8.0 mph WNW12.9 kmh WNW 22.0 mph35.4 kmh 29.74 in1007.1 mb 0.00 in0.0 mm 0.00 in0.0 mm 0.12 in3.0 mm
06:28 PM 62.7°F17.1°C 33.2°F0.7°C 33% 11.0 mph WNW17.7 kmh WNW 22.0 mph35.4 kmh 29.74 in1007.1 mb 0.00 in0.0 mm 0.00 in0.0 mm 0.12 in3.0 mm
06:30 PM 62.7°F17.1°C 33.2°F0.7°C 33% 9.0 mph W14.5 kmh W 22.0 mph35.4 kmh 29.74 in1007.1 mb 0.00 in0.0 mm 0.00 in0.0 mm 0.12 in3.0 mm
06:32 PM 62.6°F17.0°C 32.4°F0.2°C 32% 14.0 mph WNW22.5 kmh WNW 22.0 mph35.4 kmh 29.75 in1007.5 mb 0.00 in0.0 mm 0.00 in0.0 mm 0.12 in3.0 mm
06:34 PM 62.5°F16.9°C 33.0°F0.6°C 33% 7.0 mph WNW11.3 kmh WNW 11.0 mph17.7 kmh 29.75 in1007.5 mb 0.00 in0.0 mm 0.00 in0.0 mm 0.12 in3.0 mm
06:36 PM 62.5°F16.9°C 33.0°F0.6°C 33% 4.0 mph NW6.4 kmh NW 15.0 mph24.1 kmh 29.75 in1007.5 mb 0.00 in0.0 mm 0.00 in0.0 mm 0.12 in3.0 mm
06:38 PM 62.3°F16.8°C 32.9°F0.5°C 33% 13.0 mph WNW20.9 kmh WNW 16.0 mph25.7 kmh 29.75 in1007.5 mb 0.00 in0.0 mm 0.00 in0.0 mm 0.12 in3.0 mm
06:40 PM 62.3°F16.8°C 32.9°F0.5°C 33% 9.0 mph NNW14.5 kmh NNW 16.0 mph25.7 kmh 29.75 in1007.5 mb 0.00 in0.0 mm 0.00 in0.0 mm 0.12 in3.0 mm
06:42 PM 62.2°F16.8°C 32.8°F0.4°C 33% 9.0 mph NNW14.5 kmh NNW 16.0 mph25.7 kmh 29.75 in1007.5 mb 0.00 in0.0 mm 0.00 in0.0 mm 0.12 in3.0 mm
06:44 PM 62.1°F16.7°C 32.7°F0.4°C 33% 9.0 mph W14.5 kmh W 16.0 mph25.7 kmh 29.76 in1007.8 mb 0.00 in0.0 mm 0.00 in0.0 mm 0.12 in3.0 mm
06:46 PM 62.0°F16.7°C 33.3°F0.7°C 34% 10.0 mph WNW16.1 kmh WNW 16.0 mph25.7 kmh 29.75 in1007.5 mb 0.00 in0.0 mm 0.00 in0.0 mm 0.12 in3.0 mm
06:48 PM 61.9°F16.6°C 32.5°F0.3°C 33% 13.0 mph W20.9 kmh W 16.0 mph25.7 kmh 29.75 in1007.5 mb 0.00 in0.0 mm 0.00 in0.0 mm 0.12 in3.0 mm
06:50 PM 61.9°F16.6°C 32.5°F0.3°C 33% 17.0 mph W27.4 kmh W 17.0 mph27.4 kmh 29.76 in1007.8 mb 0.00 in0.0 mm 0.00 in0.0 mm 0.12 in3.0 mm
06:52 PM 61.9°F16.6°C 32.5°F0.3°C 33% 12.0 mph W19.3 kmh W 17.0 mph27.4 kmh 29.76 in1007.8 mb 0.00 in0.0 mm 0.00 in0.0 mm 0.12 in3.0 mm
06:54 PM 62.0°F16.7°C 31.8°F-0.1°C 32% 9.0 mph NW14.5 kmh NW 17.0 mph27.4 kmh 29.75 in1007.5 mb 0.00 in0.0 mm 0.00 in0.0 mm 0.12 in3.0 mm
06:56 PM 61.9°F16.6°C 31.7°F-0.2°C 32% 8.0 mph W12.9 kmh W 17.0 mph27.4 kmh 29.76 in1007.8 mb 0.00 in0.0 mm 0.00 in0.0 mm 0.12 in3.0 mm
06:58 PM 61.9°F16.6°C 31.7°F-0.2°C 32% 11.0 mph W17.7 kmh W 17.0 mph27.4 kmh 29.75 in1007.5 mb 0.00 in0.0 mm 0.00 in0.0 mm 0.12 in3.0 mm
07:00 PM 61.9°F16.6°C 31.7°F-0.2°C 32% 10.0 mph NW16.1 kmh NW 17.0 mph27.4 kmh 29.76 in1007.8 mb 0.00 in0.0 mm 0.00 in0.0 mm 0.12 in3.0 mm
07:02 PM 61.9°F16.6°C 31.0°F-0.6°C 31% 8.0 mph W12.9 kmh W 17.0 mph27.4 kmh 29.76 in1007.8 mb 0.00 in0.0 mm 0.00 in0.0 mm 0.12 in3.0 mm
07:04 PM 62.0°F16.7°C 31.0°F-0.6°C 31% 11.0 mph NW17.7 kmh NW 19.0 mph30.6 kmh 29.76 in1007.8 mb 0.00 in0.0 mm 0.00 in0.0 mm 0.12 in3.0 mm
07:06 PM 61.9°F16.6°C 31.7°F-0.2°C 32% 8.0 mph NW12.9 kmh NW 19.0 mph30.6 kmh 29.76 in1007.8 mb 0.00 in0.0 mm 0.00 in0.0 mm 0.12 in3.0 mm
07:08 PM 61.7°F16.5°C 31.6°F-0.2°C 32% 7.0 mph WNW11.3 kmh WNW 19.0 mph30.6 kmh 29.76 in1007.8 mb 0.00 in0.0 mm 0.00 in0.0 mm 0.12 in3.0 mm
07:10 PM 61.6°F16.4°C 31.5°F-0.3°C 32% 8.0 mph WNW12.9 kmh WNW 19.0 mph30.6 kmh 29.76 in1007.8 mb 0.00 in0.0 mm 0.00 in0.0 mm 0.12 in3.0 mm
07:12 PM 61.5°F16.4°C 31.4°F-0.3°C 32% 10.0 mph WSW16.1 kmh WSW 19.0 mph30.6 kmh 29.76 in1007.8 mb 0.00 in0.0 mm 0.00 in0.0 mm 0.12 in3.0 mm
07:14 PM 61.5°F16.4°C 31.4°F-0.3°C 32% 13.0 mph NW20.9 kmh NW 19.0 mph30.6 kmh 29.76 in1007.8 mb 0.00 in0.0 mm 0.00 in0.0 mm 0.12 in3.0 mm
07:16 PM 61.5°F16.4°C 30.6°F-0.8°C 31% 10.0 mph W16.1 kmh W 19.0 mph30.6 kmh 29.76 in1007.8 mb 0.00 in0.0 mm 0.00 in0.0 mm 0.12 in3.0 mm
07:18 PM 61.6°F16.4°C 30.7°F-0.7°C 31% 7.0 mph NW11.3 kmh NW 19.0 mph30.6 kmh 29.77 in1008.1 mb 0.00 in0.0 mm 0.00 in0.0 mm 0.12 in3.0 mm
07:20 PM 61.5°F16.4°C 30.6°F-0.8°C 31% 5.0 mph WNW8.0 kmh WNW 19.0 mph30.6 kmh 29.77 in1008.1 mb 0.00 in0.0 mm 0.00 in0.0 mm 0.12 in3.0 mm
07:22 PM 61.5°F16.4°C 29.8°F-1.2°C 30% 9.0 mph W14.5 kmh W 19.0 mph30.6 kmh 29.77 in1008.1 mb 0.00 in0.0 mm 0.00 in0.0 mm 0.12 in3.0 mm
07:23 PM 61.6°F16.4°C 29.9°F-1.2°C 30% 13.0 mph W20.9 kmh W 19.0 mph30.6 kmh 29.77 in1008.1 mb 0.00 in0.0 mm 0.00 in0.0 mm 0.12 in3.0 mm
07:26 PM 61.6°F16.4°C 29.9°F-1.2°C 30% 10.0 mph WNW16.1 kmh WNW 19.0 mph30.6 kmh 29.77 in1008.1 mb 0.00 in0.0 mm 0.00 in0.0 mm 0.12 in3.0 mm
07:28 PM 61.6°F16.4°C 29.1°F-1.6°C 29% 13.0 mph WNW20.9 kmh WNW 19.0 mph30.6 kmh 29.77 in1008.1 mb 0.00 in0.0 mm 0.00 in0.0 mm 0.12 in3.0 mm
07:30 PM 61.7°F16.5°C 29.2°F-1.6°C 29% 13.0 mph WNW20.9 kmh WNW 19.0 mph30.6 kmh 29.77 in1008.1 mb 0.00 in0.0 mm 0.00 in0.0 mm 0.12 in3.0 mm
07:32 PM 61.6°F16.4°C 29.1°F-1.6°C 29% 9.0 mph WNW14.5 kmh WNW 19.0 mph30.6 kmh 29.77 in1008.1 mb 0.00 in0.0 mm 0.00 in0.0 mm 0.12 in3.0 mm
07:34 PM 61.7°F16.5°C 29.2°F-1.6°C 29% 12.0 mph WNW19.3 kmh WNW 18.0 mph29.0 kmh 29.78 in1008.5 mb 0.00 in0.0 mm 0.00 in0.0 mm 0.12 in3.0 mm
07:36 PM 61.7°F16.5°C 29.2°F-1.6°C 29% 13.0 mph W20.9 kmh W 18.0 mph29.0 kmh 29.78 in1008.5 mb 0.00 in0.0 mm 0.00 in0.0 mm 0.12 in3.0 mm
07:38 PM 61.5°F16.4°C 29.8°F-1.2°C 30% 17.0 mph W27.4 kmh W 18.0 mph29.0 kmh 29.77 in1008.1 mb 0.00 in0.0 mm 0.00 in0.0 mm 0.12 in3.0 mm
07:40 PM 61.4°F16.3°C 28.9°F-1.7°C 29% 10.0 mph NW16.1 kmh NW 18.0 mph29.0 kmh 29.78 in1008.5 mb 0.00 in0.0 mm 0.00 in0.0 mm 0.12 in3.0 mm
07:42 PM 61.3°F16.3°C 29.6°F-1.3°C 30% 8.0 mph NW12.9 kmh NW 18.0 mph29.0 kmh 29.78 in1008.5 mb 0.00 in0.0 mm 0.00 in0.0 mm 0.12 in3.0 mm
07:44 PM 61.2°F16.2°C 29.5°F-1.4°C 30% 5.0 mph WNW8.0 kmh WNW 18.0 mph29.0 kmh 29.78 in1008.5 mb 0.00 in0.0 mm 0.00 in0.0 mm 0.12 in3.0 mm
07:46 PM 61.0°F16.1°C 29.4°F-1.4°C 30% 10.0 mph W16.1 kmh W 18.0 mph29.0 kmh 29.78 in1008.5 mb 0.00 in0.0 mm 0.00 in0.0 mm 0.12 in3.0 mm
07:48 PM 60.9°F16.1°C 29.3°F-1.5°C 30% 9.0 mph WNW14.5 kmh WNW 18.0 mph29.0 kmh 29.78 in1008.5 mb 0.00 in0.0 mm 0.00 in0.0 mm 0.12 in3.0 mm
07:50 PM 60.9°F16.1°C 29.3°F-1.5°C 30% 13.0 mph WNW20.9 kmh WNW 18.0 mph29.0 kmh 29.78 in1008.5 mb 0.00 in0.0 mm 0.00 in0.0 mm 0.12 in3.0 mm
07:52 PM 60.8°F16.0°C 29.2°F-1.6°C 30% 10.0 mph W16.1 kmh W 18.0 mph29.0 kmh 29.78 in1008.5 mb 0.00 in0.0 mm 0.00 in0.0 mm 0.12 in3.0 mm
07:54 PM 60.7°F15.9°C 29.9°F-1.2°C 31% 13.0 mph W20.9 kmh W 18.0 mph29.0 kmh 29.78 in1008.5 mb 0.00 in0.0 mm 0.00 in0.0 mm 0.12 in3.0 mm
07:56 PM 60.6°F15.9°C 29.0°F-1.7°C 30% 8.0 mph W12.9 kmh W 18.0 mph29.0 kmh 29.78 in1008.5 mb 0.00 in0.0 mm 0.00 in0.0 mm 0.12 in3.0 mm
07:58 PM 60.5°F15.8°C 28.9°F-1.7°C 30% 18.0 mph WNW29.0 kmh WNW 24.0 mph38.6 kmh 29.78 in1008.5 mb 0.00 in0.0 mm 0.00 in0.0 mm 0.12 in3.0 mm
08:00 PM 60.6°F15.9°C 29.0°F-1.7°C 30% 12.0 mph WSW19.3 kmh WSW 24.0 mph38.6 kmh 29.79 in1008.8 mb 0.00 in0.0 mm 0.00 in0.0 mm 0.12 in3.0 mm
08:02 PM 60.5°F15.8°C 28.9°F-1.7°C 30% 10.0 mph WSW16.1 kmh WSW 24.0 mph38.6 kmh 29.79 in1008.8 mb 0.00 in0.0 mm 0.00 in0.0 mm 0.12 in3.0 mm
08:04 PM 60.4°F15.8°C 29.7°F-1.3°C 31% 11.0 mph WNW17.7 kmh WNW 14.0 mph22.5 kmh 29.79 in1008.8 mb 0.00 in0.0 mm 0.00 in0.0 mm 0.12 in3.0 mm
08:06 PM 60.3°F15.7°C 29.6°F-1.3°C 31% 8.0 mph NW12.9 kmh NW 14.0 mph22.5 kmh 29.79 in1008.8 mb 0.00 in0.0 mm 0.00 in0.0 mm 0.12 in3.0 mm
08:08 PM 60.1°F15.6°C 29.4°F-1.4°C 31% 10.0 mph WNW16.1 kmh WNW 14.0 mph22.5 kmh 29.79 in1008.8 mb 0.00 in0.0 mm 0.00 in0.0 mm 0.12 in3.0 mm
08:10 PM 60.0°F15.6°C 29.3°F-1.5°C 31% 13.0 mph W20.9 kmh W 15.0 mph24.1 kmh 29.79 in1008.8 mb 0.00 in0.0 mm 0.00 in0.0 mm 0.12 in3.0 mm
08:12 PM 59.9°F15.5°C 29.2°F-1.6°C 31% 7.0 mph W11.3 kmh W 15.0 mph24.1 kmh 29.79 in1008.8 mb 0.00 in0.0 mm 0.00 in0.0 mm 0.12 in3.0 mm
08:14 PM 59.8°F15.4°C 29.1°F-1.6°C 31% 8.0 mph W12.9 kmh W 15.0 mph24.1 kmh 29.79 in1008.8 mb 0.00 in0.0 mm 0.00 in0.0 mm 0.12 in3.0 mm
08:16 PM 59.8°F15.4°C 29.1°F-1.6°C 31% 13.0 mph NW20.9 kmh NW 16.0 mph25.7 kmh 29.79 in1008.8 mb 0.00 in0.0 mm 0.00 in0.0 mm 0.12 in3.0 mm
08:18 PM 59.7°F15.4°C 29.0°F-1.7°C 31% 15.0 mph WNW24.1 kmh WNW 16.0 mph25.7 kmh 29.80 in1009.1 mb 0.00 in0.0 mm 0.00 in0.0 mm 0.12 in3.0 mm
08:20 PM 59.6°F15.3°C 29.0°F-1.7°C 31% 14.0 mph W22.5 kmh W 16.0 mph25.7 kmh 29.80 in1009.1 mb 0.00 in0.0 mm 0.00 in0.0 mm 0.12 in3.0 mm
08:22 PM 59.6°F15.3°C 29.0°F-1.7°C 31% 9.0 mph WSW14.5 kmh WSW 16.0 mph25.7 kmh 29.80 in1009.1 mb 0.00 in0.0 mm 0.00 in0.0 mm 0.12 in3.0 mm
08:24 PM 59.5°F15.3°C 28.9°F-1.7°C 31% 10.0 mph W16.1 kmh W 16.0 mph25.7 kmh 29.80 in1009.1 mb 0.00 in0.0 mm 0.00 in0.0 mm 0.12 in3.0 mm
08:26 PM 59.4°F15.2°C 28.8°F-1.8°C 31% 8.0 mph W12.9 kmh W 16.0 mph25.7 kmh 29.80 in1009.1 mb 0.00 in0.0 mm 0.00 in0.0 mm 0.12 in3.0 mm
08:28 PM 59.4°F15.2°C 28.0°F-2.2°C 30% 8.0 mph WNW12.9 kmh WNW 16.0 mph25.7 kmh 29.80 in1009.1 mb 0.00 in0.0 mm 0.00 in0.0 mm 0.12 in3.0 mm
08:30 PM 59.4°F15.2°C 27.2°F-2.7°C 29% 9.0 mph WNW14.5 kmh WNW 16.0 mph25.7 kmh 29.80 in1009.1 mb 0.00 in0.0 mm 0.00 in0.0 mm 0.12 in3.0 mm
08:32 PM 59.3°F15.2°C 27.1°F-2.7°C 29% 10.0 mph WNW16.1 kmh WNW 16.0 mph25.7 kmh 29.80 in1009.1 mb 0.00 in0.0 mm 0.00 in0.0 mm 0.12 in3.0 mm
08:34 PM 59.3°F15.2°C 26.2°F-3.2°C 28% 7.0 mph W11.3 kmh W 16.0 mph25.7 kmh 29.80 in1009.1 mb 0.00 in0.0 mm 0.00 in0.0 mm 0.12 in3.0 mm
08:36 PM 59.3°F15.2°C 25.4°F-3.7°C 27% 9.0 mph NW14.5 kmh NW 18.0 mph29.0 kmh 29.80 in1009.1 mb 0.00 in0.0 mm 0.00 in0.0 mm 0.12 in3.0 mm
08:38 PM 59.3°F15.2°C 24.4°F-4.2°C 26% 16.0 mph NW25.7 kmh NW 18.0 mph29.0 kmh 29.80 in1009.1 mb 0.00 in0.0 mm 0.00 in0.0 mm 0.12 in3.0 mm
08:40 PM 59.4°F15.2°C 24.5°F-4.2°C 26% 12.0 mph W19.3 kmh W 18.0 mph29.0 kmh 29.81 in1009.5 mb 0.00 in0.0 mm 0.00 in0.0 mm 0.12 in3.0 mm
08:42 PM 59.3°F15.2°C 23.5°F-4.7°C 25% 11.0 mph NW17.7 kmh NW 18.0 mph29.0 kmh 29.80 in1009.1 mb 0.00 in0.0 mm 0.00 in0.0 mm 0.12 in3.0 mm
08:44 PM 59.2°F15.1°C 23.4°F-4.8°C 25% 14.0 mph WNW22.5 kmh WNW 18.0 mph29.0 kmh 29.81 in1009.5 mb 0.00 in0.0 mm 0.00 in0.0 mm 0.12 in3.0 mm
08:46 PM 59.3°F15.2°C 22.5°F-5.3°C 24% 8.0 mph W12.9 kmh W 18.0 mph29.0 kmh 29.81 in1009.5 mb 0.00 in0.0 mm 0.00 in0.0 mm 0.12 in3.0 mm
08:48 PM 59.3°F15.2°C 23.5°F-4.7°C 25% 9.0 mph W14.5 kmh W 18.0 mph29.0 kmh 29.81 in1009.5 mb 0.00 in0.0 mm 0.00 in0.0 mm 0.12 in3.0 mm
08:50 PM 59.3°F15.2°C 22.5°F-5.3°C 24% 10.0 mph WNW16.1 kmh WNW 18.0 mph29.0 kmh 29.81 in1009.5 mb 0.00 in0.0 mm 0.00 in0.0 mm 0.12 in3.0 mm
08:52 PM 59.2°F15.1°C 21.4°F-5.9°C 23% 14.0 mph WSW22.5 kmh WSW 18.0 mph29.0 kmh 29.81 in1009.5 mb 0.00 in0.0 mm 0.00 in0.0 mm 0.12 in3.0 mm
08:54 PM 59.2°F15.1°C 21.4°F-5.9°C 23% 9.0 mph WNW14.5 kmh WNW 18.0 mph29.0 kmh 29.81 in1009.5 mb 0.00 in0.0 mm 0.00 in0.0 mm 0.12 in3.0 mm
08:56 PM 59.2°F15.1°C 21.4°F-5.9°C 23% 7.0 mph NW11.3 kmh NW 19.0 mph30.6 kmh 29.81 in1009.5 mb 0.00 in0.0 mm 0.00 in0.0 mm 0.12 in3.0 mm
08:58 PM 59.2°F15.1°C 21.4°F-5.9°C 23% 11.0 mph W17.7 kmh W 19.0 mph30.6 kmh 29.81 in1009.5 mb 0.00 in0.0 mm 0.00 in0.0 mm 0.12 in3.0 mm
09:00 PM 59.1°F15.1°C 20.3°F-6.5°C 22% 10.0 mph W16.1 kmh W 19.0 mph30.6 kmh 29.81 in1009.5 mb 0.00 in0.0 mm 0.00 in0.0 mm 0.12 in3.0 mm
09:02 PM 59.0°F15.0°C 20.2°F-6.6°C 22% 13.0 mph WSW20.9 kmh WSW 19.0 mph30.6 kmh 29.81 in1009.5 mb 0.00 in0.0 mm 0.00 in0.0 mm 0.12 in3.0 mm
09:04 PM 59.0°F15.0°C 20.2°F-6.6°C 22% 9.0 mph WNW14.5 kmh WNW 20.0 mph32.2 kmh 29.81 in1009.5 mb 0.00 in0.0 mm 0.00 in0.0 mm 0.12 in3.0 mm
09:06 PM 58.9°F14.9°C 20.2°F-6.6°C 22% 12.0 mph W19.3 kmh W 20.0 mph32.2 kmh 29.81 in1009.5 mb 0.00 in0.0 mm 0.00 in0.0 mm 0.12 in3.0 mm
09:08 PM 58.9°F14.9°C 20.2°F-6.6°C 22% 10.0 mph NW16.1 kmh NW 20.0 mph32.2 kmh 29.81 in1009.5 mb 0.00 in0.0 mm 0.00 in0.0 mm 0.12 in3.0 mm
09:10 PM 58.9°F14.9°C 20.2°F-6.6°C 22% 9.0 mph NW14.5 kmh NW 20.0 mph32.2 kmh 29.82 in1009.8 mb 0.00 in0.0 mm 0.00 in0.0 mm 0.12 in3.0 mm
09:12 PM 58.9°F14.9°C 20.2°F-6.6°C 22% 10.0 mph WNW16.1 kmh WNW 20.0 mph32.2 kmh 29.82 in1009.8 mb 0.00 in0.0 mm 0.00 in0.0 mm 0.12 in3.0 mm
09:14 PM 58.8°F14.9°C 20.1°F-6.6°C 22% 13.0 mph WSW20.9 kmh WSW 20.0 mph32.2 kmh 29.82 in1009.8 mb 0.00 in0.0 mm 0.00 in0.0 mm 0.12 in3.0 mm
09:16 PM 58.7°F14.8°C 20.0°F-6.7°C 22% 11.0 mph WNW17.7 kmh WNW 20.0 mph32.2 kmh 29.82 in1009.8 mb 0.00 in0.0 mm 0.00 in0.0 mm 0.12 in3.0 mm
09:18 PM 58.6°F14.8°C 19.9°F-6.7°C 22% 11.0 mph WNW17.7 kmh WNW 20.0 mph32.2 kmh 29.82 in1009.8 mb 0.00 in0.0 mm 0.00 in0.0 mm 0.12 in3.0 mm
09:20 PM 58.7°F14.8°C 20.0°F-6.7°C 22% 15.0 mph WNW24.1 kmh WNW 20.0 mph32.2 kmh 29.82 in1009.8 mb 0.00 in0.0 mm 0.00 in0.0 mm 0.12 in3.0 mm
09:22 PM 58.6°F14.8°C 19.9°F-6.7°C 22% 12.0 mph WSW19.3 kmh WSW 20.0 mph32.2 kmh 29.82 in1009.8 mb 0.00 in0.0 mm 0.00 in0.0 mm 0.12 in3.0 mm
09:24 PM 58.6°F14.8°C 19.9°F-6.7°C 22% 6.0 mph NW9.7 kmh NW 20.0 mph32.2 kmh 29.82 in1009.8 mb 0.00 in0.0 mm 0.00 in0.0 mm 0.12 in3.0 mm
09:26 PM 58.5°F14.7°C 19.8°F-6.8°C 22% 11.0 mph WNW17.7 kmh WNW 20.0 mph32.2 kmh 29.82 in1009.8 mb 0.00 in0.0 mm 0.00 in0.0 mm 0.12 in3.0 mm
09:28 PM 58.4°F14.7°C 19.7°F-6.8°C 22% 11.0 mph W17.7 kmh W 20.0 mph32.2 kmh 29.82 in1009.8 mb 0.00 in0.0 mm 0.00 in0.0 mm 0.12 in3.0 mm
09:30 PM 58.3°F14.6°C 18.6°F-7.4°C 21% 7.0 mph WNW11.3 kmh WNW 20.0 mph32.2 kmh 29.82 in1009.8 mb 0.00 in0.0 mm 0.00 in0.0 mm 0.12 in3.0 mm
09:32 PM 58.3°F14.6°C 19.6°F-6.9°C 22% 9.0 mph WSW14.5 kmh WSW 20.0 mph32.2 kmh 29.82 in1009.8 mb 0.00 in0.0 mm 0.00 in0.0 mm 0.12 in3.0 mm
09:34 PM 58.2°F14.6°C 19.6°F-6.9°C 22% 11.0 mph WNW17.7 kmh WNW 18.0 mph29.0 kmh 29.82 in1009.8 mb 0.00 in0.0 mm 0.00 in0.0 mm 0.12 in3.0 mm
09:36 PM 58.2°F14.6°C 19.6°F-6.9°C 22% 8.0 mph W12.9 kmh W 18.0 mph29.0 kmh 29.82 in1009.8 mb 0.00 in0.0 mm 0.00 in0.0 mm 0.12 in3.0 mm
09:38 PM 58.1°F14.5°C 19.5°F-6.9°C 22% 11.0 mph WSW17.7 kmh WSW 18.0 mph29.0 kmh 29.83 in1010.2 mb 0.00 in0.0 mm 0.00 in0.0 mm 0.12 in3.0 mm
09:40 PM 58.1°F14.5°C 19.5°F-6.9°C 22% 10.0 mph W16.1 kmh W 18.0 mph29.0 kmh 29.82 in1009.8 mb 0.00 in0.0 mm 0.00 in0.0 mm 0.12 in3.0 mm
09:41 PM 58.1°F14.5°C 18.4°F-7.6°C 21% 8.0 mph W12.9 kmh W 18.0 mph29.0 kmh 29.82 in1009.8 mb 0.00 in0.0 mm 0.00 in0.0 mm 0.12 in3.0 mm
09:44 PM 58.0°F14.4°C 19.4°F-7.0°C 22% 9.0 mph WNW14.5 kmh WNW 18.0 mph29.0 kmh 29.82 in1009.8 mb 0.00 in0.0 mm 0.00 in0.0 mm 0.12 in3.0 mm
09:46 PM 58.0°F14.4°C 19.4°F-7.0°C 22% 7.0 mph W11.3 kmh W 18.0 mph29.0 kmh 29.82 in1009.8 mb 0.00 in0.0 mm 0.00 in0.0 mm 0.12 in3.0 mm
09:48 PM 57.9°F14.4°C 19.3°F-7.1°C 22% 8.0 mph WNW12.9 kmh WNW 18.0 mph29.0 kmh 29.82 in1009.8 mb 0.00 in0.0 mm 0.00 in0.0 mm 0.12 in3.0 mm
09:50 PM 57.9°F14.4°C 19.3°F-7.1°C 22% 9.0 mph WSW14.5 kmh WSW 18.0 mph29.0 kmh 29.82 in1009.8 mb 0.00 in0.0 mm 0.00 in0.0 mm 0.12 in3.0 mm
09:52 PM 57.7°F14.3°C 19.1°F-7.2°C 22% 10.0 mph WSW16.1 kmh WSW 18.0 mph29.0 kmh 29.82 in1009.8 mb 0.00 in0.0 mm 0.00 in0.0 mm 0.12 in3.0 mm
09:54 PM 57.6°F14.2°C 20.1°F-6.6°C 23% 8.0 mph NW12.9 kmh NW 18.0 mph29.0 kmh 29.82 in1009.8 mb 0.00 in0.0 mm 0.00 in0.0 mm 0.12 in3.0 mm
09:56 PM 57.5°F14.2°C 19.0°F-7.2°C 22% 7.0 mph W11.3 kmh W 18.0 mph29.0 kmh 29.82 in1009.8 mb 0.00 in0.0 mm 0.00 in0.0 mm 0.12 in3.0 mm
09:58 PM 57.4°F14.1°C 19.9°F-6.7°C 23% 7.0 mph WNW11.3 kmh WNW 18.0 mph29.0 kmh 29.83 in1010.2 mb 0.00 in0.0 mm 0.00 in0.0 mm 0.12 in3.0 mm
10:00 PM 57.3°F14.1°C 19.8°F-6.8°C 23% 4.0 mph W6.4 kmh W 18.0 mph29.0 kmh 29.83 in1010.2 mb 0.00 in0.0 mm 0.00 in0.0 mm 0.12 in3.0 mm
10:02 PM 57.2°F14.0°C 19.8°F-6.8°C 23% 6.0 mph WSW9.7 kmh WSW 18.0 mph29.0 kmh 29.83 in1010.2 mb 0.00 in0.0 mm 0.00 in0.0 mm 0.12 in3.0 mm
10:04 PM 57.0°F13.9°C 19.6°F-6.9°C 23% 7.0 mph W11.3 kmh W 8.0 mph12.9 kmh 29.83 in1010.2 mb 0.00 in0.0 mm 0.00 in0.0 mm 0.12 in3.0 mm
10:06 PM 57.0°F13.9°C 19.6°F-6.9°C 23% 5.0 mph WNW8.0 kmh WNW 15.0 mph24.1 kmh 29.83 in1010.2 mb 0.00 in0.0 mm 0.00 in0.0 mm 0.12 in3.0 mm
10:08 PM 56.9°F13.8°C 20.5°F-6.4°C 24% 8.0 mph W12.9 kmh W 15.0 mph24.1 kmh 29.83 in1010.2 mb 0.00 in0.0 mm 0.00 in0.0 mm 0.12 in3.0 mm
10:10 PM 56.9°F13.8°C 20.5°F-6.4°C 24% 8.0 mph W12.9 kmh W 15.0 mph24.1 kmh 29.83 in1010.2 mb 0.00 in0.0 mm 0.00 in0.0 mm 0.12 in3.0 mm
10:12 PM 56.7°F13.7°C 20.3°F-6.5°C 24% 7.0 mph WNW11.3 kmh WNW 15.0 mph24.1 kmh 29.83 in1010.2 mb 0.00 in0.0 mm 0.00 in0.0 mm 0.12 in3.0 mm
10:14 PM 56.6°F13.7°C 20.3°F-6.5°C 24% 7.0 mph W11.3 kmh W 15.0 mph24.1 kmh 29.83 in1010.2 mb 0.00 in0.0 mm 0.00 in0.0 mm 0.12 in3.0 mm
10:16 PM 56.5°F13.6°C 20.2°F-6.6°C 24% 4.0 mph W6.4 kmh W 15.0 mph24.1 kmh 29.83 in1010.2 mb 0.00 in0.0 mm 0.00 in0.0 mm 0.12 in3.0 mm
10:18 PM 56.4°F13.6°C 21.0°F-6.1°C 25% 9.0 mph W14.5 kmh W 15.0 mph24.1 kmh 29.83 in1010.2 mb 0.00 in0.0 mm 0.00 in0.0 mm 0.12 in3.0 mm
10:20 PM 56.3°F13.5°C 21.0°F-6.1°C 25% 7.0 mph W11.3 kmh W 15.0 mph24.1 kmh 29.83 in1010.2 mb 0.00 in0.0 mm 0.00 in0.0 mm 0.12 in3.0 mm
10:22 PM 56.2°F13.4°C 20.9°F-6.2°C 25% 10.0 mph W16.1 kmh W 15.0 mph24.1 kmh 29.83 in1010.2 mb 0.00 in0.0 mm 0.00 in0.0 mm 0.12 in3.0 mm
10:24 PM 56.1°F13.4°C 20.8°F-6.2°C 25% 7.0 mph WNW11.3 kmh WNW 15.0 mph24.1 kmh 29.83 in1010.2 mb 0.00 in0.0 mm 0.00 in0.0 mm 0.12 in3.0 mm
10:26 PM 56.0°F13.3°C 20.7°F-6.3°C 25% 6.0 mph W9.7 kmh W 15.0 mph24.1 kmh 29.83 in1010.2 mb 0.00 in0.0 mm 0.00 in0.0 mm 0.12 in3.0 mm
10:28 PM 55.9°F13.3°C 20.6°F-6.3°C 25% 6.0 mph W9.7 kmh W 15.0 mph24.1 kmh 29.83 in1010.2 mb 0.00 in0.0 mm 0.00 in0.0 mm 0.12 in3.0 mm
10:30 PM 55.8°F13.2°C 20.5°F-6.4°C 25% 5.0 mph WNW8.0 kmh WNW 15.0 mph24.1 kmh 29.83 in1010.2 mb 0.00 in0.0 mm 0.00 in0.0 mm 0.12 in3.0 mm
10:32 PM 55.8°F13.2°C 20.5°F-6.4°C 25% 10.0 mph WSW16.1 kmh WSW 15.0 mph24.1 kmh 29.83 in1010.2 mb 0.00 in0.0 mm 0.00 in0.0 mm 0.12 in3.0 mm
10:34 PM 55.8°F13.2°C 20.5°F-6.4°C 25% 4.0 mph W6.4 kmh W 9.0 mph14.5 kmh 29.83 in1010.2 mb 0.00 in0.0 mm 0.00 in0.0 mm 0.12 in3.0 mm
10:36 PM 55.7°F13.2°C 20.4°F-6.4°C 25% 7.0 mph WSW11.3 kmh WSW 9.0 mph14.5 kmh 29.83 in1010.2 mb 0.00 in0.0 mm 0.00 in0.0 mm 0.12 in3.0 mm
10:38 PM 55.6°F13.1°C 20.4°F-6.4°C 25% 8.0 mph W12.9 kmh W 11.0 mph17.7 kmh 29.83 in1010.2 mb 0.00 in0.0 mm 0.00 in0.0 mm 0.12 in3.0 mm
10:40 PM 55.5°F13.1°C 21.2°F-6.0°C 26% 9.0 mph NW14.5 kmh NW 11.0 mph17.7 kmh 29.83 in1010.2 mb 0.00 in0.0 mm 0.00 in0.0 mm 0.12 in3.0 mm
10:42 PM 55.4°F13.0°C 20.2°F-6.6°C 25% 8.0 mph WSW12.9 kmh WSW 11.0 mph17.7 kmh 29.83 in1010.2 mb 0.00 in0.0 mm 0.00 in0.0 mm 0.12 in3.0 mm
10:44 PM 55.4°F13.0°C 21.1°F-6.1°C 26% 9.0 mph W14.5 kmh W 11.0 mph17.7 kmh 29.83 in1010.2 mb 0.00 in0.0 mm 0.00 in0.0 mm 0.12 in3.0 mm
10:46 PM 55.3°F12.9°C 21.0°F-6.1°C 26% 7.0 mph WSW11.3 kmh WSW 11.0 mph17.7 kmh 29.83 in1010.2 mb 0.00 in0.0 mm 0.00 in0.0 mm 0.12 in3.0 mm
10:48 PM 55.2°F12.9°C 20.9°F-6.2°C 26% 10.0 mph W16.1 kmh W 11.0 mph17.7 kmh 29.84 in1010.5 mb 0.00 in0.0 mm 0.00 in0.0 mm 0.12 in3.0 mm
10:50 PM 55.1°F12.8°C 20.9°F-6.2°C 26% 10.0 mph W16.1 kmh W 12.0 mph19.3 kmh 29.83 in1010.2 mb 0.00 in0.0 mm 0.00 in0.0 mm 0.12 in3.0 mm
10:51 PM 55.2°F12.9°C 20.9°F-6.2°C 26% 7.0 mph WNW11.3 kmh WNW 12.0 mph19.3 kmh 29.84 in1010.5 mb 0.00 in0.0 mm 0.00 in0.0 mm 0.12 in3.0 mm
10:54 PM 55.2°F12.9°C 20.0°F-6.7°C 25% 9.0 mph WNW14.5 kmh WNW 14.0 mph22.5 kmh 29.84 in1010.5 mb 0.00 in0.0 mm 0.00 in0.0 mm 0.12 in3.0 mm
10:56 PM 55.2°F12.9°C 20.0°F-6.7°C 25% 11.0 mph W17.7 kmh W 14.0 mph22.5 kmh 29.84 in1010.5 mb 0.00 in0.0 mm 0.00 in0.0 mm 0.12 in3.0 mm
10:58 PM 55.2°F12.9°C 20.0°F-6.7°C 25% 11.0 mph WNW17.7 kmh WNW 14.0 mph22.5 kmh 29.84 in1010.5 mb 0.00 in0.0 mm 0.00 in0.0 mm 0.12 in3.0 mm
10:59 PM 55.3°F12.9°C 20.1°F-6.6°C 25% 10.0 mph W16.1 kmh W 14.0 mph22.5 kmh 29.84 in1010.5 mb 0.00 in0.0 mm 0.00 in0.0 mm 0.12 in3.0 mm
11:02 PM 55.2°F12.9°C 20.9°F-6.2°C 26% 7.0 mph NW11.3 kmh NW 14.0 mph22.5 kmh 29.83 in1010.2 mb 0.00 in0.0 mm 0.00 in0.0 mm 0.12 in3.0 mm
11:04 PM 55.1°F12.8°C 19.9°F-6.7°C 25% 9.0 mph W14.5 kmh W 13.0 mph20.9 kmh 29.83 in1010.2 mb 0.00 in0.0 mm 0.00 in0.0 mm 0.12 in3.0 mm
11:06 PM 55.1°F12.8°C 19.9°F-6.7°C 25% 11.0 mph W17.7 kmh W 13.0 mph20.9 kmh 29.84 in1010.5 mb 0.00 in0.0 mm 0.00 in0.0 mm 0.12 in3.0 mm
11:08 PM 55.1°F12.8°C 20.9°F-6.2°C 26% 13.0 mph W20.9 kmh W 14.0 mph22.5 kmh 29.83 in1010.2 mb 0.00 in0.0 mm 0.00 in0.0 mm 0.12 in3.0 mm
11:10 PM 55.1°F12.8°C 19.9°F-6.7°C 25% 12.0 mph NW19.3 kmh NW 14.0 mph22.5 kmh 29.83 in1010.2 mb 0.00 in0.0 mm 0.00 in0.0 mm 0.12 in3.0 mm
11:12 PM 55.1°F12.8°C 19.9°F-6.7°C 25% 12.0 mph WSW19.3 kmh WSW 14.0 mph22.5 kmh 29.83 in1010.2 mb 0.00 in0.0 mm 0.00 in0.0 mm 0.12 in3.0 mm
11:14 PM 55.1°F12.8°C 19.9°F-6.7°C 25% 8.0 mph WNW12.9 kmh WNW 14.0 mph22.5 kmh 29.83 in1010.2 mb 0.00 in0.0 mm 0.00 in0.0 mm 0.12 in3.0 mm
11:16 PM 55.0°F12.8°C 19.8°F-6.8°C 25% 7.0 mph W11.3 kmh W 14.0 mph22.5 kmh 29.84 in1010.5 mb 0.00 in0.0 mm 0.00 in0.0 mm 0.12 in3.0 mm
11:18 PM 55.0°F12.8°C 19.8°F-6.8°C 25% 9.0 mph WSW14.5 kmh WSW 15.0 mph24.1 kmh 29.84 in1010.5 mb 0.00 in0.0 mm 0.00 in0.0 mm 0.12 in3.0 mm
11:20 PM 54.9°F12.7°C 19.8°F-6.8°C 25% 8.0 mph WSW12.9 kmh WSW 15.0 mph24.1 kmh 29.84 in1010.5 mb 0.00 in0.0 mm 0.00 in0.0 mm 0.12 in3.0 mm
11:22 PM 54.8°F12.7°C 20.6°F-6.3°C 26% 5.0 mph NW8.0 kmh NW 15.0 mph24.1 kmh 29.84 in1010.5 mb 0.00 in0.0 mm 0.00 in0.0 mm 0.12 in3.0 mm
11:24 PM 54.7°F12.6°C 20.5°F-6.4°C 26% 7.0 mph WNW11.3 kmh WNW 15.0 mph24.1 kmh 29.84 in1010.5 mb 0.00 in0.0 mm 0.00 in0.0 mm 0.12 in3.0 mm
11:26 PM 54.6°F12.6°C 20.4°F-6.4°C 26% 7.0 mph WNW11.3 kmh WNW 15.0 mph24.1 kmh 29.84 in1010.5 mb 0.00 in0.0 mm 0.00 in0.0 mm 0.12 in3.0 mm
11:28 PM 54.5°F12.5°C 20.3°F-6.5°C 26% 4.0 mph W6.4 kmh W 15.0 mph24.1 kmh 29.84 in1010.5 mb 0.00 in0.0 mm 0.00 in0.0 mm 0.12 in3.0 mm
11:30 PM 54.3°F12.4°C 21.1°F-6.1°C 27% 11.0 mph W17.7 kmh W 15.0 mph24.1 kmh 29.84 in1010.5 mb 0.00 in0.0 mm 0.00 in0.0 mm 0.12 in3.0 mm
11:32 PM 54.3°F12.4°C 20.2°F-6.6°C 26% 10.0 mph W16.1 kmh W 15.0 mph24.1 kmh 29.84 in1010.5 mb 0.00 in0.0 mm 0.00 in0.0 mm 0.12 in3.0 mm
11:34 PM 54.2°F12.3°C 20.1°F-6.6°C 26% 11.0 mph WSW17.7 kmh WSW 15.0 mph24.1 kmh 29.84 in1010.5 mb 0.00 in0.0 mm 0.00 in0.0 mm 0.12 in3.0 mm
11:36 PM 54.2°F12.3°C 21.0°F-6.1°C 27% 11.0 mph WNW17.7 kmh WNW 15.0 mph24.1 kmh 29.84 in1010.5 mb 0.00 in0.0 mm 0.00 in0.0 mm 0.12 in3.0 mm
11:38 PM 54.2°F12.3°C 21.0°F-6.1°C 27% 15.0 mph W24.1 kmh W 15.0 mph24.1 kmh 29.84 in1010.5 mb 0.00 in0.0 mm 0.00 in0.0 mm 0.12 in3.0 mm
11:40 PM 54.2°F12.3°C 21.0°F-6.1°C 27% 12.0 mph WSW19.3 kmh WSW 15.0 mph24.1 kmh 29.84 in1010.5 mb 0.00 in0.0 mm 0.00 in0.0 mm 0.12 in3.0 mm
11:41 PM 54.2°F12.3°C 21.0°F-6.1°C 27% 17.0 mph W27.4 kmh W 17.0 mph27.4 kmh 29.84 in1010.5 mb 0.00 in0.0 mm 0.00 in0.0 mm 0.12 in3.0 mm
11:44 PM 54.1°F12.3°C 20.9°F-6.2°C 27% 13.0 mph WNW20.9 kmh WNW 17.0 mph27.4 kmh 29.84 in1010.5 mb 0.00 in0.0 mm 0.00 in0.0 mm 0.12 in3.0 mm
11:45 PM 54.0°F12.2°C 20.8°F-6.2°C 27% 11.0 mph WSW17.7 kmh WSW 17.0 mph27.4 kmh 29.84 in1010.5 mb 0.00 in0.0 mm 0.00 in0.0 mm 0.12 in3.0 mm
11:48 PM 54.0°F12.2°C 20.8°F-6.2°C 27% 8.0 mph NW12.9 kmh NW 17.0 mph27.4 kmh 29.84 in1010.5 mb 0.00 in0.0 mm 0.00 in0.0 mm 0.12 in3.0 mm
11:49 PM 53.9°F12.2°C 21.6°F-5.8°C 28% 8.0 mph W12.9 kmh W 17.0 mph27.4 kmh 29.84 in1010.5 mb 0.00 in0.0 mm 0.00 in0.0 mm 0.12 in3.0 mm
11:52 PM 53.7°F12.1°C 21.4°F-5.9°C 28% 10.0 mph W16.1 kmh W 17.0 mph27.4 kmh 29.84 in1010.5 mb 0.00 in0.0 mm 0.00 in0.0 mm 0.12 in3.0 mm
11:53 PM 53.6°F12.0°C 21.3°F-5.9°C 28% 7.0 mph W11.3 kmh W 17.0 mph27.4 kmh 29.84 in1010.5 mb 0.00 in0.0 mm 0.00 in0.0 mm 0.12 in3.0 mm
11:55 PM 53.4°F11.9°C 22.0°F-5.6°C 29% 7.0 mph W11.3 kmh W 17.0 mph27.4 kmh 29.84 in1010.5 mb 0.00 in0.0 mm 0.00 in0.0 mm 0.12 in3.0 mm
11:57 PM 53.4°F11.9°C 22.0°F-5.6°C 29% 7.0 mph W11.3 kmh W 17.0 mph27.4 kmh 29.84 in1010.5 mb 0.00 in0.0 mm 0.00 in0.0 mm 0.12 in3.0 mm